<?xml version="1.0" encoding="UTF-8" standalone="no" ?>
<gpx xmlns="http://www.topografix.com/GPX/1/1" xmlns:xsi="http://www.w3.org/2001/XMLSchema-instance" xsi:schemaLocation="http://www.topografix.com/GPX/1/1 http://www.topografix.com/GPX/1/1/gpx.xsd" version="1.1" creator="VisuGPX - https://www.visugpx.com">
  <metadata>
    <name>2011-07-16 Vtt Vaunavey-Serre des Aigles</name>
    <desc><![CDATA[Une superbe rando avec un temps magnifiques et des points de vues sublimes sur le vercors, la vallée de la drôme, les 3 becs et l\'ardèche lointaine]]></desc>
  </metadata>
  <trk>
    <name><![CDATA[2011-07-16 VTT vaunavey]]></name>
    <cmt><![CDATA[16 juil. 2011 08:14:38]]></cmt>
    <trkseg>
      <trkpt lat="44.76904" lon="5.0331">
        <ele>183</ele>
        <time>2011-07-16T06:14:39Z</time>
      </trkpt>
      <trkpt lat="44.76912" lon="5.03303">
        <ele>213</ele>
        <time>2011-07-16T06:14:48Z</time>
      </trkpt>
      <trkpt lat="44.76908" lon="5.03288">
        <ele>228</ele>
        <time>2011-07-16T06:15:08Z</time>
      </trkpt>
      <trkpt lat="44.769" lon="5.03282">
        <ele>245</ele>
        <time>2011-07-16T06:17:24Z</time>
      </trkpt>
      <trkpt lat="44.76898" lon="5.03288">
        <ele>247</ele>
        <time>2011-07-16T06:17:31Z</time>
      </trkpt>
      <trkpt lat="44.76899" lon="5.03302">
        <ele>250</ele>
        <time>2011-07-16T06:17:45Z</time>
      </trkpt>
      <trkpt lat="44.76897" lon="5.03308">
        <ele>250</ele>
        <time>2011-07-16T06:17:49Z</time>
      </trkpt>
      <trkpt lat="44.76897" lon="5.03315">
        <ele>251</ele>
        <time>2011-07-16T06:17:53Z</time>
      </trkpt>
      <trkpt lat="44.76901" lon="5.0332">
        <ele>252</ele>
        <time>2011-07-16T06:17:57Z</time>
      </trkpt>
      <trkpt lat="44.76901" lon="5.03328">
        <ele>253</ele>
        <time>2011-07-16T06:18:01Z</time>
      </trkpt>
      <trkpt lat="44.76897" lon="5.03331">
        <ele>254</ele>
        <time>2011-07-16T06:18:06Z</time>
      </trkpt>
      <trkpt lat="44.76887" lon="5.03329">
        <ele>255</ele>
        <time>2011-07-16T06:18:17Z</time>
      </trkpt>
      <trkpt lat="44.76885" lon="5.03336">
        <ele>257</ele>
        <time>2011-07-16T06:18:25Z</time>
      </trkpt>
      <trkpt lat="44.76889" lon="5.03341">
        <ele>257</ele>
        <time>2011-07-16T06:18:28Z</time>
      </trkpt>
      <trkpt lat="44.76938" lon="5.03371">
        <ele>263</ele>
        <time>2011-07-16T06:18:58Z</time>
      </trkpt>
      <trkpt lat="44.77" lon="5.03418">
        <ele>267</ele>
        <time>2011-07-16T06:19:29Z</time>
      </trkpt>
      <trkpt lat="44.77067" lon="5.03432">
        <ele>272</ele>
        <time>2011-07-16T06:20:00Z</time>
      </trkpt>
      <trkpt lat="44.7714" lon="5.03447">
        <ele>276</ele>
        <time>2011-07-16T06:20:32Z</time>
      </trkpt>
      <trkpt lat="44.77211" lon="5.03442">
        <ele>281</ele>
        <time>2011-07-16T06:21:04Z</time>
      </trkpt>
      <trkpt lat="44.77273" lon="5.03432">
        <ele>288</ele>
        <time>2011-07-16T06:21:35Z</time>
      </trkpt>
      <trkpt lat="44.77313" lon="5.03456">
        <ele>293</ele>
        <time>2011-07-16T06:22:01Z</time>
      </trkpt>
      <trkpt lat="44.77316" lon="5.03463">
        <ele>294</ele>
        <time>2011-07-16T06:22:05Z</time>
      </trkpt>
      <trkpt lat="44.77309" lon="5.035">
        <ele>298</ele>
        <time>2011-07-16T06:22:24Z</time>
      </trkpt>
      <trkpt lat="44.77307" lon="5.03508">
        <ele>298</ele>
        <time>2011-07-16T06:22:29Z</time>
      </trkpt>
      <trkpt lat="44.77293" lon="5.03517">
        <ele>301</ele>
        <time>2011-07-16T06:22:42Z</time>
      </trkpt>
      <trkpt lat="44.77242" lon="5.03565">
        <ele>305</ele>
        <time>2011-07-16T06:23:13Z</time>
      </trkpt>
      <trkpt lat="44.77241" lon="5.03595">
        <ele>305</ele>
        <time>2011-07-16T06:23:22Z</time>
      </trkpt>
      <trkpt lat="44.77287" lon="5.03733">
        <ele>312</ele>
        <time>2011-07-16T06:23:51Z</time>
      </trkpt>
      <trkpt lat="44.77308" lon="5.03763">
        <ele>312</ele>
        <time>2011-07-16T06:24:06Z</time>
      </trkpt>
      <trkpt lat="44.77317" lon="5.03871">
        <ele>314</ele>
        <time>2011-07-16T06:24:39Z</time>
      </trkpt>
      <trkpt lat="44.77334" lon="5.03975">
        <ele>319</ele>
        <time>2011-07-16T06:25:12Z</time>
      </trkpt>
      <trkpt lat="44.77332" lon="5.04075">
        <ele>323</ele>
        <time>2011-07-16T06:25:42Z</time>
      </trkpt>
      <trkpt lat="44.77323" lon="5.04173">
        <ele>326</ele>
        <time>2011-07-16T06:26:12Z</time>
      </trkpt>
      <trkpt lat="44.7733" lon="5.04267">
        <ele>329</ele>
        <time>2011-07-16T06:26:41Z</time>
      </trkpt>
      <trkpt lat="44.77299" lon="5.04303">
        <ele>331</ele>
        <time>2011-07-16T06:26:59Z</time>
      </trkpt>
      <trkpt lat="44.77239" lon="5.04347">
        <ele>335</ele>
        <time>2011-07-16T06:27:31Z</time>
      </trkpt>
      <trkpt lat="44.77235" lon="5.0436">
        <ele>336</ele>
        <time>2011-07-16T06:27:36Z</time>
      </trkpt>
      <trkpt lat="44.77238" lon="5.04383">
        <ele>336</ele>
        <time>2011-07-16T06:27:45Z</time>
      </trkpt>
      <trkpt lat="44.77274" lon="5.04437">
        <ele>341</ele>
        <time>2011-07-16T06:28:16Z</time>
      </trkpt>
      <trkpt lat="44.77313" lon="5.04487">
        <ele>345</ele>
        <time>2011-07-16T06:28:47Z</time>
      </trkpt>
      <trkpt lat="44.77337" lon="5.0451">
        <ele>347</ele>
        <time>2011-07-16T06:29:06Z</time>
      </trkpt>
      <trkpt lat="44.77338" lon="5.04517">
        <ele>348</ele>
        <time>2011-07-16T06:29:12Z</time>
      </trkpt>
      <trkpt lat="44.77351" lon="5.04577">
        <ele>356</ele>
        <time>2011-07-16T06:29:45Z</time>
      </trkpt>
      <trkpt lat="44.77366" lon="5.04609">
        <ele>359</ele>
        <time>2011-07-16T06:30:04Z</time>
      </trkpt>
      <trkpt lat="44.77365" lon="5.04616">
        <ele>359</ele>
        <time>2011-07-16T06:30:09Z</time>
      </trkpt>
      <trkpt lat="44.77361" lon="5.04629">
        <ele>360</ele>
        <time>2011-07-16T06:30:17Z</time>
      </trkpt>
      <trkpt lat="44.77329" lon="5.04658">
        <ele>364</ele>
        <time>2011-07-16T06:30:43Z</time>
      </trkpt>
      <trkpt lat="44.77317" lon="5.04734">
        <ele>368</ele>
        <time>2011-07-16T06:31:14Z</time>
      </trkpt>
      <trkpt lat="44.77306" lon="5.04815">
        <ele>372</ele>
        <time>2011-07-16T06:31:49Z</time>
      </trkpt>
      <trkpt lat="44.77308" lon="5.04828">
        <ele>373</ele>
        <time>2011-07-16T06:31:55Z</time>
      </trkpt>
      <trkpt lat="44.77335" lon="5.04877">
        <ele>378</ele>
        <time>2011-07-16T06:32:28Z</time>
      </trkpt>
      <trkpt lat="44.77369" lon="5.04919">
        <ele>385</ele>
        <time>2011-07-16T06:33:03Z</time>
      </trkpt>
      <trkpt lat="44.77401" lon="5.04954">
        <ele>390</ele>
        <time>2011-07-16T06:33:33Z</time>
      </trkpt>
      <trkpt lat="44.77442" lon="5.04984">
        <ele>395</ele>
        <time>2011-07-16T06:34:03Z</time>
      </trkpt>
      <trkpt lat="44.77483" lon="5.05034">
        <ele>400</ele>
        <time>2011-07-16T06:34:35Z</time>
      </trkpt>
      <trkpt lat="44.77526" lon="5.0509">
        <ele>404</ele>
        <time>2011-07-16T06:35:09Z</time>
      </trkpt>
      <trkpt lat="44.77569" lon="5.05137">
        <ele>407</ele>
        <time>2011-07-16T06:35:41Z</time>
      </trkpt>
      <trkpt lat="44.77617" lon="5.05191">
        <ele>411</ele>
        <time>2011-07-16T06:36:16Z</time>
      </trkpt>
      <trkpt lat="44.77639" lon="5.05228">
        <ele>414</ele>
        <time>2011-07-16T06:36:38Z</time>
      </trkpt>
      <trkpt lat="44.77663" lon="5.05234">
        <ele>416</ele>
        <time>2011-07-16T06:36:54Z</time>
      </trkpt>
      <trkpt lat="44.77681" lon="5.05266">
        <ele>420</ele>
        <time>2011-07-16T06:37:18Z</time>
      </trkpt>
      <trkpt lat="44.77689" lon="5.05275">
        <ele>424</ele>
        <time>2011-07-16T06:37:53Z</time>
      </trkpt>
      <trkpt lat="44.77703" lon="5.05303">
        <ele>429</ele>
        <time>2011-07-16T06:38:28Z</time>
      </trkpt>
      <trkpt lat="44.77718" lon="5.05338">
        <ele>432</ele>
        <time>2011-07-16T06:39:07Z</time>
      </trkpt>
      <trkpt lat="44.77727" lon="5.05368">
        <ele>435</ele>
        <time>2011-07-16T06:39:37Z</time>
      </trkpt>
      <trkpt lat="44.77736" lon="5.05387">
        <ele>437</ele>
        <time>2011-07-16T06:40:03Z</time>
      </trkpt>
      <trkpt lat="44.77742" lon="5.05383">
        <ele>442</ele>
        <time>2011-07-16T06:41:01Z</time>
      </trkpt>
      <trkpt lat="44.77764" lon="5.05384">
        <ele>447</ele>
        <time>2011-07-16T06:41:23Z</time>
      </trkpt>
      <trkpt lat="44.77798" lon="5.05372">
        <ele>454</ele>
        <time>2011-07-16T06:41:55Z</time>
      </trkpt>
      <trkpt lat="44.77838" lon="5.05372">
        <ele>460</ele>
        <time>2011-07-16T06:42:27Z</time>
      </trkpt>
      <trkpt lat="44.77882" lon="5.05371">
        <ele>465</ele>
        <time>2011-07-16T06:42:59Z</time>
      </trkpt>
      <trkpt lat="44.77916" lon="5.05371">
        <ele>468</ele>
        <time>2011-07-16T06:43:30Z</time>
      </trkpt>
      <trkpt lat="44.77939" lon="5.05381">
        <ele>471</ele>
        <time>2011-07-16T06:43:53Z</time>
      </trkpt>
      <trkpt lat="44.77947" lon="5.0538">
        <ele>473</ele>
        <time>2011-07-16T06:44:18Z</time>
      </trkpt>
      <trkpt lat="44.77953" lon="5.05383">
        <ele>475</ele>
        <time>2011-07-16T06:44:32Z</time>
      </trkpt>
      <trkpt lat="44.77976" lon="5.05375">
        <ele>479</ele>
        <time>2011-07-16T06:45:09Z</time>
      </trkpt>
      <trkpt lat="44.77994" lon="5.05373">
        <ele>481</ele>
        <time>2011-07-16T06:45:25Z</time>
      </trkpt>
      <trkpt lat="44.7801" lon="5.05359">
        <ele>485</ele>
        <time>2011-07-16T06:45:42Z</time>
      </trkpt>
      <trkpt lat="44.78015" lon="5.0536">
        <ele>486</ele>
        <time>2011-07-16T06:45:47Z</time>
      </trkpt>
      <trkpt lat="44.78018" lon="5.05354">
        <ele>487</ele>
        <time>2011-07-16T06:45:55Z</time>
      </trkpt>
      <trkpt lat="44.78017" lon="5.05356">
        <ele>489</ele>
        <time>2011-07-16T06:47:33Z</time>
      </trkpt>
      <trkpt lat="44.78018" lon="5.05363">
        <ele>489</ele>
        <time>2011-07-16T06:47:37Z</time>
      </trkpt>
      <trkpt lat="44.78009" lon="5.05395">
        <ele>492</ele>
        <time>2011-07-16T06:47:50Z</time>
      </trkpt>
      <trkpt lat="44.77968" lon="5.05451">
        <ele>498</ele>
        <time>2011-07-16T06:48:21Z</time>
      </trkpt>
      <trkpt lat="44.77923" lon="5.05494">
        <ele>504</ele>
        <time>2011-07-16T06:48:54Z</time>
      </trkpt>
      <trkpt lat="44.77891" lon="5.05533">
        <ele>509</ele>
        <time>2011-07-16T06:49:25Z</time>
      </trkpt>
      <trkpt lat="44.77868" lon="5.05583">
        <ele>514</ele>
        <time>2011-07-16T06:49:58Z</time>
      </trkpt>
      <trkpt lat="44.77866" lon="5.05612">
        <ele>516</ele>
        <time>2011-07-16T06:50:11Z</time>
      </trkpt>
      <trkpt lat="44.77862" lon="5.05617">
        <ele>517</ele>
        <time>2011-07-16T06:50:15Z</time>
      </trkpt>
      <trkpt lat="44.77818" lon="5.05656">
        <ele>521</ele>
        <time>2011-07-16T06:50:48Z</time>
      </trkpt>
      <trkpt lat="44.7778" lon="5.05719">
        <ele>526</ele>
        <time>2011-07-16T06:51:19Z</time>
      </trkpt>
      <trkpt lat="44.77762" lon="5.05791">
        <ele>531</ele>
        <time>2011-07-16T06:51:51Z</time>
      </trkpt>
      <trkpt lat="44.77759" lon="5.05814">
        <ele>534</ele>
        <time>2011-07-16T06:52:04Z</time>
      </trkpt>
      <trkpt lat="44.7777" lon="5.05884">
        <ele>537</ele>
        <time>2011-07-16T06:52:38Z</time>
      </trkpt>
      <trkpt lat="44.77785" lon="5.05925">
        <ele>539</ele>
        <time>2011-07-16T06:53:00Z</time>
      </trkpt>
      <trkpt lat="44.77788" lon="5.05925">
        <ele>539</ele>
        <time>2011-07-16T06:56:05Z</time>
      </trkpt>
      <trkpt lat="44.77786" lon="5.05929">
        <ele>537</ele>
        <time>2011-07-16T07:00:30Z</time>
      </trkpt>
      <trkpt lat="44.77787" lon="5.05924">
        <ele>535</ele>
        <time>2011-07-16T07:01:49Z</time>
      </trkpt>
      <trkpt lat="44.77786" lon="5.05925">
        <ele>535</ele>
        <time>2011-07-16T07:05:00Z</time>
      </trkpt>
      <trkpt lat="44.77785" lon="5.05931">
        <ele>534</ele>
        <time>2011-07-16T07:07:48Z</time>
      </trkpt>
      <trkpt lat="44.77786" lon="5.05929">
        <ele>535</ele>
        <time>2011-07-16T07:11:10Z</time>
      </trkpt>
      <trkpt lat="44.77797" lon="5.05934">
        <ele>536</ele>
        <time>2011-07-16T07:12:38Z</time>
      </trkpt>
      <trkpt lat="44.77799" lon="5.05941">
        <ele>536</ele>
        <time>2011-07-16T07:12:42Z</time>
      </trkpt>
      <trkpt lat="44.77795" lon="5.05946">
        <ele>536</ele>
        <time>2011-07-16T07:12:46Z</time>
      </trkpt>
      <trkpt lat="44.77781" lon="5.05963">
        <ele>536</ele>
        <time>2011-07-16T07:12:57Z</time>
      </trkpt>
      <trkpt lat="44.7778" lon="5.05969">
        <ele>536</ele>
        <time>2011-07-16T07:12:59Z</time>
      </trkpt>
      <trkpt lat="44.77781" lon="5.05982">
        <ele>536</ele>
        <time>2011-07-16T07:13:02Z</time>
      </trkpt>
      <trkpt lat="44.77785" lon="5.0599">
        <ele>537</ele>
        <time>2011-07-16T07:13:04Z</time>
      </trkpt>
      <trkpt lat="44.7779" lon="5.05996">
        <ele>537</ele>
        <time>2011-07-16T07:13:06Z</time>
      </trkpt>
      <trkpt lat="44.77791" lon="5.06004">
        <ele>537</ele>
        <time>2011-07-16T07:13:08Z</time>
      </trkpt>
      <trkpt lat="44.77789" lon="5.06018">
        <ele>537</ele>
        <time>2011-07-16T07:13:12Z</time>
      </trkpt>
      <trkpt lat="44.77774" lon="5.06101">
        <ele>538</ele>
        <time>2011-07-16T07:13:44Z</time>
      </trkpt>
      <trkpt lat="44.77782" lon="5.06132">
        <ele>539</ele>
        <time>2011-07-16T07:13:54Z</time>
      </trkpt>
      <trkpt lat="44.77805" lon="5.06179">
        <ele>540</ele>
        <time>2011-07-16T07:14:11Z</time>
      </trkpt>
      <trkpt lat="44.77801" lon="5.06209">
        <ele>540</ele>
        <time>2011-07-16T07:14:23Z</time>
      </trkpt>
      <trkpt lat="44.77798" lon="5.06214">
        <ele>540</ele>
        <time>2011-07-16T07:14:28Z</time>
      </trkpt>
      <trkpt lat="44.77754" lon="5.06241">
        <ele>542</ele>
        <time>2011-07-16T07:15:00Z</time>
      </trkpt>
      <trkpt lat="44.77743" lon="5.06241">
        <ele>543</ele>
        <time>2011-07-16T07:15:09Z</time>
      </trkpt>
      <trkpt lat="44.77721" lon="5.06227">
        <ele>543</ele>
        <time>2011-07-16T07:15:33Z</time>
      </trkpt>
      <trkpt lat="44.77701" lon="5.06235">
        <ele>545</ele>
        <time>2011-07-16T07:15:46Z</time>
      </trkpt>
      <trkpt lat="44.77696" lon="5.06239">
        <ele>545</ele>
        <time>2011-07-16T07:15:50Z</time>
      </trkpt>
      <trkpt lat="44.77693" lon="5.06246">
        <ele>548</ele>
        <time>2011-07-16T07:16:41Z</time>
      </trkpt>
      <trkpt lat="44.77677" lon="5.0628">
        <ele>553</ele>
        <time>2011-07-16T07:17:12Z</time>
      </trkpt>
      <trkpt lat="44.77666" lon="5.06312">
        <ele>557</ele>
        <time>2011-07-16T07:17:41Z</time>
      </trkpt>
      <trkpt lat="44.77662" lon="5.06315">
        <ele>557</ele>
        <time>2011-07-16T07:17:46Z</time>
      </trkpt>
      <trkpt lat="44.77652" lon="5.06317">
        <ele>559</ele>
        <time>2011-07-16T07:18:06Z</time>
      </trkpt>
      <trkpt lat="44.77645" lon="5.06312">
        <ele>560</ele>
        <time>2011-07-16T07:18:20Z</time>
      </trkpt>
      <trkpt lat="44.77641" lon="5.06317">
        <ele>562</ele>
        <time>2011-07-16T07:18:24Z</time>
      </trkpt>
      <trkpt lat="44.77612" lon="5.06348">
        <ele>569</ele>
        <time>2011-07-16T07:19:00Z</time>
      </trkpt>
      <trkpt lat="44.77585" lon="5.0636">
        <ele>573</ele>
        <time>2011-07-16T07:19:31Z</time>
      </trkpt>
      <trkpt lat="44.77552" lon="5.06372">
        <ele>577</ele>
        <time>2011-07-16T07:20:07Z</time>
      </trkpt>
      <trkpt lat="44.77514" lon="5.06358">
        <ele>581</ele>
        <time>2011-07-16T07:20:40Z</time>
      </trkpt>
      <trkpt lat="44.77499" lon="5.06359">
        <ele>583</ele>
        <time>2011-07-16T07:20:52Z</time>
      </trkpt>
      <trkpt lat="44.77498" lon="5.06366">
        <ele>585</ele>
        <time>2011-07-16T07:20:58Z</time>
      </trkpt>
      <trkpt lat="44.775" lon="5.06367">
        <ele>596</ele>
        <time>2011-07-16T07:23:45Z</time>
      </trkpt>
      <trkpt lat="44.775" lon="5.06374">
        <ele>599</ele>
        <time>2011-07-16T07:24:55Z</time>
      </trkpt>
      <trkpt lat="44.77497" lon="5.0638">
        <ele>600</ele>
        <time>2011-07-16T07:24:59Z</time>
      </trkpt>
      <trkpt lat="44.77493" lon="5.06384">
        <ele>600</ele>
        <time>2011-07-16T07:25:04Z</time>
      </trkpt>
      <trkpt lat="44.77493" lon="5.06377">
        <ele>601</ele>
        <time>2011-07-16T07:25:11Z</time>
      </trkpt>
      <trkpt lat="44.77495" lon="5.06375">
        <ele>604</ele>
        <time>2011-07-16T07:26:19Z</time>
      </trkpt>
      <trkpt lat="44.77491" lon="5.06376">
        <ele>607</ele>
        <time>2011-07-16T07:29:06Z</time>
      </trkpt>
      <trkpt lat="44.77487" lon="5.06369">
        <ele>607</ele>
        <time>2011-07-16T07:29:09Z</time>
      </trkpt>
      <trkpt lat="44.77485" lon="5.06362">
        <ele>607</ele>
        <time>2011-07-16T07:29:12Z</time>
      </trkpt>
      <trkpt lat="44.77481" lon="5.06358">
        <ele>607</ele>
        <time>2011-07-16T07:29:15Z</time>
      </trkpt>
      <trkpt lat="44.77479" lon="5.06351">
        <ele>607</ele>
        <time>2011-07-16T07:29:18Z</time>
      </trkpt>
      <trkpt lat="44.77474" lon="5.06348">
        <ele>607</ele>
        <time>2011-07-16T07:29:21Z</time>
      </trkpt>
      <trkpt lat="44.77357" lon="5.0631">
        <ele>605</ele>
        <time>2011-07-16T07:29:52Z</time>
      </trkpt>
      <trkpt lat="44.77337" lon="5.06305">
        <ele>604</ele>
        <time>2011-07-16T07:29:57Z</time>
      </trkpt>
      <trkpt lat="44.77329" lon="5.06304">
        <ele>604</ele>
        <time>2011-07-16T07:29:59Z</time>
      </trkpt>
      <trkpt lat="44.77208" lon="5.06314">
        <ele>598</ele>
        <time>2011-07-16T07:30:29Z</time>
      </trkpt>
      <trkpt lat="44.772" lon="5.06315">
        <ele>597</ele>
        <time>2011-07-16T07:30:31Z</time>
      </trkpt>
      <trkpt lat="44.77167" lon="5.0632">
        <ele>594</ele>
        <time>2011-07-16T07:30:38Z</time>
      </trkpt>
      <trkpt lat="44.77122" lon="5.06317">
        <ele>593</ele>
        <time>2011-07-16T07:30:46Z</time>
      </trkpt>
      <trkpt lat="44.77111" lon="5.06311">
        <ele>593</ele>
        <time>2011-07-16T07:30:49Z</time>
      </trkpt>
      <trkpt lat="44.77091" lon="5.06303">
        <ele>592</ele>
        <time>2011-07-16T07:30:55Z</time>
      </trkpt>
      <trkpt lat="44.77073" lon="5.06285">
        <ele>592</ele>
        <time>2011-07-16T07:31:04Z</time>
      </trkpt>
      <trkpt lat="44.76944" lon="5.06155">
        <ele>579</ele>
        <time>2011-07-16T07:31:36Z</time>
      </trkpt>
      <trkpt lat="44.76934" lon="5.06155">
        <ele>579</ele>
        <time>2011-07-16T07:31:38Z</time>
      </trkpt>
      <trkpt lat="44.76892" lon="5.06152">
        <ele>578</ele>
        <time>2011-07-16T07:31:46Z</time>
      </trkpt>
      <trkpt lat="44.76751" lon="5.06163">
        <ele>567</ele>
        <time>2011-07-16T07:32:18Z</time>
      </trkpt>
      <trkpt lat="44.7661" lon="5.06171">
        <ele>551</ele>
        <time>2011-07-16T07:32:49Z</time>
      </trkpt>
      <trkpt lat="44.76446" lon="5.06087">
        <ele>535</ele>
        <time>2011-07-16T07:33:19Z</time>
      </trkpt>
      <trkpt lat="44.76276" lon="5.06092">
        <ele>525</ele>
        <time>2011-07-16T07:33:50Z</time>
      </trkpt>
      <trkpt lat="44.76239" lon="5.06113">
        <ele>520</ele>
        <time>2011-07-16T07:33:58Z</time>
      </trkpt>
      <trkpt lat="44.76082" lon="5.06162">
        <ele>488</ele>
        <time>2011-07-16T07:34:29Z</time>
      </trkpt>
      <trkpt lat="44.7606" lon="5.06168">
        <ele>487</ele>
        <time>2011-07-16T07:34:44Z</time>
      </trkpt>
      <trkpt lat="44.76061" lon="5.06165">
        <ele>477</ele>
        <time>2011-07-16T07:38:38Z</time>
      </trkpt>
      <trkpt lat="44.76064" lon="5.06165">
        <ele>476</ele>
        <time>2011-07-16T07:39:16Z</time>
      </trkpt>
      <trkpt lat="44.76062" lon="5.06161">
        <ele>473</ele>
        <time>2011-07-16T07:40:14Z</time>
      </trkpt>
      <trkpt lat="44.7606" lon="5.06156">
        <ele>471</ele>
        <time>2011-07-16T07:41:11Z</time>
      </trkpt>
      <trkpt lat="44.76055" lon="5.06154">
        <ele>471</ele>
        <time>2011-07-16T07:41:21Z</time>
      </trkpt>
      <trkpt lat="44.76062" lon="5.06161">
        <ele>470</ele>
        <time>2011-07-16T07:42:16Z</time>
      </trkpt>
      <trkpt lat="44.76058" lon="5.06161">
        <ele>471</ele>
        <time>2011-07-16T07:42:34Z</time>
      </trkpt>
      <trkpt lat="44.76004" lon="5.06165">
        <ele>471</ele>
        <time>2011-07-16T07:43:07Z</time>
      </trkpt>
      <trkpt lat="44.75939" lon="5.06187">
        <ele>472</ele>
        <time>2011-07-16T07:43:29Z</time>
      </trkpt>
      <trkpt lat="44.7593" lon="5.06188">
        <ele>474</ele>
        <time>2011-07-16T07:43:31Z</time>
      </trkpt>
      <trkpt lat="44.75918" lon="5.06189">
        <ele>475</ele>
        <time>2011-07-16T07:43:34Z</time>
      </trkpt>
      <trkpt lat="44.7588" lon="5.06196">
        <ele>476</ele>
        <time>2011-07-16T07:43:47Z</time>
      </trkpt>
      <trkpt lat="44.75804" lon="5.06231">
        <ele>471</ele>
        <time>2011-07-16T07:44:12Z</time>
      </trkpt>
      <trkpt lat="44.75782" lon="5.06232">
        <ele>466</ele>
        <time>2011-07-16T07:44:17Z</time>
      </trkpt>
      <trkpt lat="44.75774" lon="5.06231">
        <ele>466</ele>
        <time>2011-07-16T07:44:19Z</time>
      </trkpt>
      <trkpt lat="44.75678" lon="5.06236">
        <ele>464</ele>
        <time>2011-07-16T07:44:49Z</time>
      </trkpt>
      <trkpt lat="44.75594" lon="5.06254">
        <ele>456</ele>
        <time>2011-07-16T07:45:22Z</time>
      </trkpt>
      <trkpt lat="44.75592" lon="5.0626">
        <ele>455</ele>
        <time>2011-07-16T07:45:25Z</time>
      </trkpt>
      <trkpt lat="44.75575" lon="5.0628">
        <ele>449</ele>
        <time>2011-07-16T07:46:01Z</time>
      </trkpt>
      <trkpt lat="44.75571" lon="5.06276">
        <ele>448</ele>
        <time>2011-07-16T07:46:05Z</time>
      </trkpt>
      <trkpt lat="44.75569" lon="5.0627">
        <ele>447</ele>
        <time>2011-07-16T07:46:08Z</time>
      </trkpt>
      <trkpt lat="44.75564" lon="5.06269">
        <ele>446</ele>
        <time>2011-07-16T07:46:11Z</time>
      </trkpt>
      <trkpt lat="44.75561" lon="5.06275">
        <ele>445</ele>
        <time>2011-07-16T07:46:15Z</time>
      </trkpt>
      <trkpt lat="44.75533" lon="5.06313">
        <ele>437</ele>
        <time>2011-07-16T07:46:46Z</time>
      </trkpt>
      <trkpt lat="44.75526" lon="5.06316">
        <ele>436</ele>
        <time>2011-07-16T07:46:49Z</time>
      </trkpt>
      <trkpt lat="44.75521" lon="5.06316">
        <ele>436</ele>
        <time>2011-07-16T07:46:51Z</time>
      </trkpt>
      <trkpt lat="44.7551" lon="5.06327">
        <ele>430</ele>
        <time>2011-07-16T07:47:29Z</time>
      </trkpt>
      <trkpt lat="44.75505" lon="5.06327">
        <ele>429</ele>
        <time>2011-07-16T07:47:31Z</time>
      </trkpt>
      <trkpt lat="44.75489" lon="5.06322">
        <ele>427</ele>
        <time>2011-07-16T07:47:37Z</time>
      </trkpt>
      <trkpt lat="44.75479" lon="5.06327">
        <ele>424</ele>
        <time>2011-07-16T07:47:44Z</time>
      </trkpt>
      <trkpt lat="44.75473" lon="5.06322">
        <ele>423</ele>
        <time>2011-07-16T07:47:47Z</time>
      </trkpt>
      <trkpt lat="44.75463" lon="5.0632">
        <ele>418</ele>
        <time>2011-07-16T07:48:08Z</time>
      </trkpt>
      <trkpt lat="44.7544" lon="5.0633">
        <ele>411</ele>
        <time>2011-07-16T07:48:34Z</time>
      </trkpt>
      <trkpt lat="44.75428" lon="5.06339">
        <ele>407</ele>
        <time>2011-07-16T07:49:08Z</time>
      </trkpt>
      <trkpt lat="44.75392" lon="5.06384">
        <ele>397</ele>
        <time>2011-07-16T07:49:56Z</time>
      </trkpt>
      <trkpt lat="44.75382" lon="5.06396">
        <ele>393</ele>
        <time>2011-07-16T07:49:59Z</time>
      </trkpt>
      <trkpt lat="44.75314" lon="5.06464">
        <ele>389</ele>
        <time>2011-07-16T07:50:31Z</time>
      </trkpt>
      <trkpt lat="44.75298" lon="5.06473">
        <ele>388</ele>
        <time>2011-07-16T07:50:38Z</time>
      </trkpt>
      <trkpt lat="44.75293" lon="5.06472">
        <ele>388</ele>
        <time>2011-07-16T07:50:42Z</time>
      </trkpt>
      <trkpt lat="44.75288" lon="5.06471">
        <ele>386</ele>
        <time>2011-07-16T07:51:00Z</time>
      </trkpt>
      <trkpt lat="44.75278" lon="5.0647">
        <ele>385</ele>
        <time>2011-07-16T07:51:23Z</time>
      </trkpt>
      <trkpt lat="44.75268" lon="5.06475">
        <ele>385</ele>
        <time>2011-07-16T07:51:30Z</time>
      </trkpt>
      <trkpt lat="44.75226" lon="5.06503">
        <ele>383</ele>
        <time>2011-07-16T07:51:50Z</time>
      </trkpt>
      <trkpt lat="44.75212" lon="5.06494">
        <ele>383</ele>
        <time>2011-07-16T07:51:54Z</time>
      </trkpt>
      <trkpt lat="44.75189" lon="5.06476">
        <ele>376</ele>
        <time>2011-07-16T07:52:00Z</time>
      </trkpt>
      <trkpt lat="44.75171" lon="5.06471">
        <ele>376</ele>
        <time>2011-07-16T07:52:06Z</time>
      </trkpt>
      <trkpt lat="44.7517" lon="5.06466">
        <ele>375</ele>
        <time>2011-07-16T07:53:05Z</time>
      </trkpt>
      <trkpt lat="44.75166" lon="5.06469">
        <ele>375</ele>
        <time>2011-07-16T07:54:00Z</time>
      </trkpt>
      <trkpt lat="44.75168" lon="5.06476">
        <ele>375</ele>
        <time>2011-07-16T07:54:07Z</time>
      </trkpt>
      <trkpt lat="44.75168" lon="5.06474">
        <ele>374</ele>
        <time>2011-07-16T07:54:40Z</time>
      </trkpt>
      <trkpt lat="44.75165" lon="5.06477">
        <ele>374</ele>
        <time>2011-07-16T07:55:23Z</time>
      </trkpt>
      <trkpt lat="44.75162" lon="5.06481">
        <ele>373</ele>
        <time>2011-07-16T07:55:28Z</time>
      </trkpt>
      <trkpt lat="44.75156" lon="5.06485">
        <ele>373</ele>
        <time>2011-07-16T07:55:31Z</time>
      </trkpt>
      <trkpt lat="44.75152" lon="5.06493">
        <ele>372</ele>
        <time>2011-07-16T07:55:34Z</time>
      </trkpt>
      <trkpt lat="44.75152" lon="5.06503">
        <ele>372</ele>
        <time>2011-07-16T07:55:37Z</time>
      </trkpt>
      <trkpt lat="44.75154" lon="5.06511">
        <ele>372</ele>
        <time>2011-07-16T07:55:39Z</time>
      </trkpt>
      <trkpt lat="44.75158" lon="5.06527">
        <ele>369</ele>
        <time>2011-07-16T07:55:42Z</time>
      </trkpt>
      <trkpt lat="44.75165" lon="5.06545">
        <ele>369</ele>
        <time>2011-07-16T07:55:45Z</time>
      </trkpt>
      <trkpt lat="44.75245" lon="5.06618">
        <ele>367</ele>
        <time>2011-07-16T07:56:14Z</time>
      </trkpt>
      <trkpt lat="44.75266" lon="5.06627">
        <ele>367</ele>
        <time>2011-07-16T07:56:23Z</time>
      </trkpt>
      <trkpt lat="44.75264" lon="5.06636">
        <ele>367</ele>
        <time>2011-07-16T07:56:26Z</time>
      </trkpt>
      <trkpt lat="44.75249" lon="5.06662">
        <ele>364</ele>
        <time>2011-07-16T07:56:32Z</time>
      </trkpt>
      <trkpt lat="44.75252" lon="5.06676">
        <ele>363</ele>
        <time>2011-07-16T07:56:35Z</time>
      </trkpt>
      <trkpt lat="44.75255" lon="5.06686">
        <ele>362</ele>
        <time>2011-07-16T07:56:37Z</time>
      </trkpt>
      <trkpt lat="44.75292" lon="5.06773">
        <ele>358</ele>
        <time>2011-07-16T07:57:02Z</time>
      </trkpt>
      <trkpt lat="44.75295" lon="5.06783">
        <ele>353</ele>
        <time>2011-07-16T07:57:40Z</time>
      </trkpt>
      <trkpt lat="44.75235" lon="5.06862">
        <ele>344</ele>
        <time>2011-07-16T07:58:11Z</time>
      </trkpt>
      <trkpt lat="44.75184" lon="5.06961">
        <ele>337</ele>
        <time>2011-07-16T07:58:34Z</time>
      </trkpt>
      <trkpt lat="44.75187" lon="5.06973">
        <ele>337</ele>
        <time>2011-07-16T07:58:37Z</time>
      </trkpt>
      <trkpt lat="44.752" lon="5.06992">
        <ele>336</ele>
        <time>2011-07-16T07:58:41Z</time>
      </trkpt>
      <trkpt lat="44.7523" lon="5.07039">
        <ele>335</ele>
        <time>2011-07-16T07:58:52Z</time>
      </trkpt>
      <trkpt lat="44.75353" lon="5.07154">
        <ele>334</ele>
        <time>2011-07-16T07:59:22Z</time>
      </trkpt>
      <trkpt lat="44.75406" lon="5.072">
        <ele>334</ele>
        <time>2011-07-16T07:59:34Z</time>
      </trkpt>
      <trkpt lat="44.75544" lon="5.07362">
        <ele>323</ele>
        <time>2011-07-16T08:00:06Z</time>
      </trkpt>
      <trkpt lat="44.75576" lon="5.07387">
        <ele>321</ele>
        <time>2011-07-16T08:00:17Z</time>
      </trkpt>
      <trkpt lat="44.75583" lon="5.07394">
        <ele>317</ele>
        <time>2011-07-16T08:00:19Z</time>
      </trkpt>
      <trkpt lat="44.75679" lon="5.07463">
        <ele>315</ele>
        <time>2011-07-16T08:00:50Z</time>
      </trkpt>
      <trkpt lat="44.75781" lon="5.07535">
        <ele>313</ele>
        <time>2011-07-16T08:01:22Z</time>
      </trkpt>
      <trkpt lat="44.75828" lon="5.07577">
        <ele>312</ele>
        <time>2011-07-16T08:01:37Z</time>
      </trkpt>
      <trkpt lat="44.75834" lon="5.07593">
        <ele>312</ele>
        <time>2011-07-16T08:01:40Z</time>
      </trkpt>
      <trkpt lat="44.75862" lon="5.07657">
        <ele>312</ele>
        <time>2011-07-16T08:01:54Z</time>
      </trkpt>
      <trkpt lat="44.75857" lon="5.0767">
        <ele>313</ele>
        <time>2011-07-16T08:01:57Z</time>
      </trkpt>
      <trkpt lat="44.75844" lon="5.07671">
        <ele>313</ele>
        <time>2011-07-16T08:02:00Z</time>
      </trkpt>
      <trkpt lat="44.75809" lon="5.07662">
        <ele>312</ele>
        <time>2011-07-16T08:02:10Z</time>
      </trkpt>
      <trkpt lat="44.75805" lon="5.07668">
        <ele>312</ele>
        <time>2011-07-16T08:02:12Z</time>
      </trkpt>
      <trkpt lat="44.75786" lon="5.07747">
        <ele>310</ele>
        <time>2011-07-16T08:02:42Z</time>
      </trkpt>
      <trkpt lat="44.75786" lon="5.0777">
        <ele>310</ele>
        <time>2011-07-16T08:02:54Z</time>
      </trkpt>
      <trkpt lat="44.75791" lon="5.07773">
        <ele>310</ele>
        <time>2011-07-16T08:02:59Z</time>
      </trkpt>
      <trkpt lat="44.758" lon="5.0778">
        <ele>310</ele>
        <time>2011-07-16T08:03:07Z</time>
      </trkpt>
      <trkpt lat="44.75824" lon="5.07826">
        <ele>313</ele>
        <time>2011-07-16T08:03:41Z</time>
      </trkpt>
      <trkpt lat="44.75844" lon="5.07869">
        <ele>317</ele>
        <time>2011-07-16T08:04:12Z</time>
      </trkpt>
      <trkpt lat="44.7589" lon="5.07915">
        <ele>321</ele>
        <time>2011-07-16T08:04:46Z</time>
      </trkpt>
      <trkpt lat="44.75923" lon="5.07944">
        <ele>325</ele>
        <time>2011-07-16T08:05:15Z</time>
      </trkpt>
      <trkpt lat="44.75923" lon="5.07952">
        <ele>326</ele>
        <time>2011-07-16T08:05:19Z</time>
      </trkpt>
      <trkpt lat="44.75911" lon="5.07981">
        <ele>328</ele>
        <time>2011-07-16T08:05:30Z</time>
      </trkpt>
      <trkpt lat="44.759" lon="5.08001">
        <ele>332</ele>
        <time>2011-07-16T08:05:34Z</time>
      </trkpt>
      <trkpt lat="44.75877" lon="5.0805">
        <ele>333</ele>
        <time>2011-07-16T08:05:46Z</time>
      </trkpt>
      <trkpt lat="44.75881" lon="5.08056">
        <ele>334</ele>
        <time>2011-07-16T08:05:49Z</time>
      </trkpt>
      <trkpt lat="44.75906" lon="5.08078">
        <ele>336</ele>
        <time>2011-07-16T08:06:12Z</time>
      </trkpt>
      <trkpt lat="44.75942" lon="5.08084">
        <ele>340</ele>
        <time>2011-07-16T08:06:45Z</time>
      </trkpt>
      <trkpt lat="44.75984" lon="5.08105">
        <ele>344</ele>
        <time>2011-07-16T08:07:20Z</time>
      </trkpt>
      <trkpt lat="44.75988" lon="5.08109">
        <ele>344</ele>
        <time>2011-07-16T08:07:24Z</time>
      </trkpt>
      <trkpt lat="44.76018" lon="5.0815">
        <ele>349</ele>
        <time>2011-07-16T08:07:56Z</time>
      </trkpt>
      <trkpt lat="44.7605" lon="5.08188">
        <ele>353</ele>
        <time>2011-07-16T08:08:26Z</time>
      </trkpt>
      <trkpt lat="44.76073" lon="5.08237">
        <ele>357</ele>
        <time>2011-07-16T08:09:03Z</time>
      </trkpt>
      <trkpt lat="44.76079" lon="5.08282">
        <ele>361</ele>
        <time>2011-07-16T08:09:38Z</time>
      </trkpt>
      <trkpt lat="44.76094" lon="5.083">
        <ele>363</ele>
        <time>2011-07-16T08:09:54Z</time>
      </trkpt>
      <trkpt lat="44.761" lon="5.08354">
        <ele>368</ele>
        <time>2011-07-16T08:10:26Z</time>
      </trkpt>
      <trkpt lat="44.76118" lon="5.08375">
        <ele>371</ele>
        <time>2011-07-16T08:11:13Z</time>
      </trkpt>
      <trkpt lat="44.76121" lon="5.08368">
        <ele>372</ele>
        <time>2011-07-16T08:11:38Z</time>
      </trkpt>
      <trkpt lat="44.76125" lon="5.08373">
        <ele>374</ele>
        <time>2011-07-16T08:11:43Z</time>
      </trkpt>
      <trkpt lat="44.76129" lon="5.08376">
        <ele>375</ele>
        <time>2011-07-16T08:11:47Z</time>
      </trkpt>
      <trkpt lat="44.7614" lon="5.08409">
        <ele>381</ele>
        <time>2011-07-16T08:12:19Z</time>
      </trkpt>
      <trkpt lat="44.76147" lon="5.08432">
        <ele>383</ele>
        <time>2011-07-16T08:12:50Z</time>
      </trkpt>
      <trkpt lat="44.76152" lon="5.0843">
        <ele>384</ele>
        <time>2011-07-16T08:13:48Z</time>
      </trkpt>
      <trkpt lat="44.76155" lon="5.08435">
        <ele>384</ele>
        <time>2011-07-16T08:14:07Z</time>
      </trkpt>
      <trkpt lat="44.76156" lon="5.08428">
        <ele>385</ele>
        <time>2011-07-16T08:14:45Z</time>
      </trkpt>
      <trkpt lat="44.76152" lon="5.08427">
        <ele>386</ele>
        <time>2011-07-16T08:14:50Z</time>
      </trkpt>
      <trkpt lat="44.76148" lon="5.08433">
        <ele>387</ele>
        <time>2011-07-16T08:14:57Z</time>
      </trkpt>
      <trkpt lat="44.76136" lon="5.08505">
        <ele>390</ele>
        <time>2011-07-16T08:15:19Z</time>
      </trkpt>
      <trkpt lat="44.76124" lon="5.08649">
        <ele>394</ele>
        <time>2011-07-16T08:15:50Z</time>
      </trkpt>
      <trkpt lat="44.76082" lon="5.08741">
        <ele>394</ele>
        <time>2011-07-16T08:16:20Z</time>
      </trkpt>
      <trkpt lat="44.76028" lon="5.08792">
        <ele>392</ele>
        <time>2011-07-16T08:16:51Z</time>
      </trkpt>
      <trkpt lat="44.75979" lon="5.08832">
        <ele>390</ele>
        <time>2011-07-16T08:17:27Z</time>
      </trkpt>
      <trkpt lat="44.75943" lon="5.08852">
        <ele>390</ele>
        <time>2011-07-16T08:17:57Z</time>
      </trkpt>
      <trkpt lat="44.75905" lon="5.08845">
        <ele>392</ele>
        <time>2011-07-16T08:18:29Z</time>
      </trkpt>
      <trkpt lat="44.75861" lon="5.08836">
        <ele>394</ele>
        <time>2011-07-16T08:19:00Z</time>
      </trkpt>
      <trkpt lat="44.75812" lon="5.08826">
        <ele>397</ele>
        <time>2011-07-16T08:19:34Z</time>
      </trkpt>
      <trkpt lat="44.75765" lon="5.08823">
        <ele>400</ele>
        <time>2011-07-16T08:20:04Z</time>
      </trkpt>
      <trkpt lat="44.75744" lon="5.08823">
        <ele>403</ele>
        <time>2011-07-16T08:20:10Z</time>
      </trkpt>
      <trkpt lat="44.75684" lon="5.08842">
        <ele>404</ele>
        <time>2011-07-16T08:20:33Z</time>
      </trkpt>
      <trkpt lat="44.75667" lon="5.08837">
        <ele>406</ele>
        <time>2011-07-16T08:20:37Z</time>
      </trkpt>
      <trkpt lat="44.75656" lon="5.08817">
        <ele>407</ele>
        <time>2011-07-16T08:20:41Z</time>
      </trkpt>
      <trkpt lat="44.75646" lon="5.08782">
        <ele>408</ele>
        <time>2011-07-16T08:20:57Z</time>
      </trkpt>
      <trkpt lat="44.75647" lon="5.08774">
        <ele>408</ele>
        <time>2011-07-16T08:21:02Z</time>
      </trkpt>
      <trkpt lat="44.75645" lon="5.08767">
        <ele>409</ele>
        <time>2011-07-16T08:21:07Z</time>
      </trkpt>
      <trkpt lat="44.75641" lon="5.08763">
        <ele>409</ele>
        <time>2011-07-16T08:21:12Z</time>
      </trkpt>
      <trkpt lat="44.75602" lon="5.08753">
        <ele>410</ele>
        <time>2011-07-16T08:21:43Z</time>
      </trkpt>
      <trkpt lat="44.7556" lon="5.08745">
        <ele>413</ele>
        <time>2011-07-16T08:22:15Z</time>
      </trkpt>
      <trkpt lat="44.75519" lon="5.08734">
        <ele>417</ele>
        <time>2011-07-16T08:22:47Z</time>
      </trkpt>
      <trkpt lat="44.75488" lon="5.08709">
        <ele>421</ele>
        <time>2011-07-16T08:23:21Z</time>
      </trkpt>
      <trkpt lat="44.7546" lon="5.08708">
        <ele>424</ele>
        <time>2011-07-16T08:23:40Z</time>
      </trkpt>
      <trkpt lat="44.75414" lon="5.08718">
        <ele>428</ele>
        <time>2011-07-16T08:24:13Z</time>
      </trkpt>
      <trkpt lat="44.75371" lon="5.08723">
        <ele>432</ele>
        <time>2011-07-16T08:24:47Z</time>
      </trkpt>
      <trkpt lat="44.75322" lon="5.08721">
        <ele>436</ele>
        <time>2011-07-16T08:25:19Z</time>
      </trkpt>
      <trkpt lat="44.75277" lon="5.08712">
        <ele>440</ele>
        <time>2011-07-16T08:25:52Z</time>
      </trkpt>
      <trkpt lat="44.75238" lon="5.08698">
        <ele>445</ele>
        <time>2011-07-16T08:26:25Z</time>
      </trkpt>
      <trkpt lat="44.75195" lon="5.08693">
        <ele>448</ele>
        <time>2011-07-16T08:26:58Z</time>
      </trkpt>
      <trkpt lat="44.75145" lon="5.08692">
        <ele>451</ele>
        <time>2011-07-16T08:27:32Z</time>
      </trkpt>
      <trkpt lat="44.7513" lon="5.08687">
        <ele>452</ele>
        <time>2011-07-16T08:27:44Z</time>
      </trkpt>
      <trkpt lat="44.75118" lon="5.08673">
        <ele>454</ele>
        <time>2011-07-16T08:27:57Z</time>
      </trkpt>
      <trkpt lat="44.75117" lon="5.08666">
        <ele>454</ele>
        <time>2011-07-16T08:28:02Z</time>
      </trkpt>
      <trkpt lat="44.75118" lon="5.08658">
        <ele>455</ele>
        <time>2011-07-16T08:28:06Z</time>
      </trkpt>
      <trkpt lat="44.75116" lon="5.08653">
        <ele>466</ele>
        <time>2011-07-16T08:32:27Z</time>
      </trkpt>
      <trkpt lat="44.75125" lon="5.08545">
        <ele>466</ele>
        <time>2011-07-16T08:32:59Z</time>
      </trkpt>
      <trkpt lat="44.75106" lon="5.08513">
        <ele>467</ele>
        <time>2011-07-16T08:33:09Z</time>
      </trkpt>
      <trkpt lat="44.75064" lon="5.08479">
        <ele>467</ele>
        <time>2011-07-16T08:33:24Z</time>
      </trkpt>
      <trkpt lat="44.75058" lon="5.08464">
        <ele>466</ele>
        <time>2011-07-16T08:33:28Z</time>
      </trkpt>
      <trkpt lat="44.7506" lon="5.08449">
        <ele>466</ele>
        <time>2011-07-16T08:33:31Z</time>
      </trkpt>
      <trkpt lat="44.75045" lon="5.08405">
        <ele>466</ele>
        <time>2011-07-16T08:33:42Z</time>
      </trkpt>
      <trkpt lat="44.74988" lon="5.08337">
        <ele>464</ele>
        <time>2011-07-16T08:34:06Z</time>
      </trkpt>
      <trkpt lat="44.74978" lon="5.08341">
        <ele>464</ele>
        <time>2011-07-16T08:34:14Z</time>
      </trkpt>
      <trkpt lat="44.74942" lon="5.08328">
        <ele>461</ele>
        <time>2011-07-16T08:34:44Z</time>
      </trkpt>
      <trkpt lat="44.74929" lon="5.08319">
        <ele>460</ele>
        <time>2011-07-16T08:34:57Z</time>
      </trkpt>
      <trkpt lat="44.74926" lon="5.0832">
        <ele>461</ele>
        <time>2011-07-16T08:36:01Z</time>
      </trkpt>
      <trkpt lat="44.74853" lon="5.08308">
        <ele>462</ele>
        <time>2011-07-16T08:36:35Z</time>
      </trkpt>
      <trkpt lat="44.74731" lon="5.08272">
        <ele>456</ele>
        <time>2011-07-16T08:37:06Z</time>
      </trkpt>
      <trkpt lat="44.74621" lon="5.08291">
        <ele>456</ele>
        <time>2011-07-16T08:37:37Z</time>
      </trkpt>
      <trkpt lat="44.7454" lon="5.08335">
        <ele>457</ele>
        <time>2011-07-16T08:38:10Z</time>
      </trkpt>
      <trkpt lat="44.74494" lon="5.08373">
        <ele>459</ele>
        <time>2011-07-16T08:38:42Z</time>
      </trkpt>
      <trkpt lat="44.74469" lon="5.08386">
        <ele>461</ele>
        <time>2011-07-16T08:39:21Z</time>
      </trkpt>
      <trkpt lat="44.74466" lon="5.08396">
        <ele>462</ele>
        <time>2011-07-16T08:39:51Z</time>
      </trkpt>
      <trkpt lat="44.74466" lon="5.08393">
        <ele>462</ele>
        <time>2011-07-16T08:40:07Z</time>
      </trkpt>
      <trkpt lat="44.74457" lon="5.08395">
        <ele>464</ele>
        <time>2011-07-16T08:40:20Z</time>
      </trkpt>
      <trkpt lat="44.74444" lon="5.08403">
        <ele>467</ele>
        <time>2011-07-16T08:40:39Z</time>
      </trkpt>
      <trkpt lat="44.74409" lon="5.08435">
        <ele>470</ele>
        <time>2011-07-16T08:41:10Z</time>
      </trkpt>
      <trkpt lat="44.74397" lon="5.0846">
        <ele>473</ele>
        <time>2011-07-16T08:41:25Z</time>
      </trkpt>
      <trkpt lat="44.74396" lon="5.08465">
        <ele>476</ele>
        <time>2011-07-16T08:41:44Z</time>
      </trkpt>
      <trkpt lat="44.74399" lon="5.08464">
        <ele>479</ele>
        <time>2011-07-16T08:43:57Z</time>
      </trkpt>
      <trkpt lat="44.74396" lon="5.08462">
        <ele>480</ele>
        <time>2011-07-16T08:45:09Z</time>
      </trkpt>
      <trkpt lat="44.74396" lon="5.08465">
        <ele>482</ele>
        <time>2011-07-16T08:47:35Z</time>
      </trkpt>
      <trkpt lat="44.74389" lon="5.08467">
        <ele>482</ele>
        <time>2011-07-16T08:48:05Z</time>
      </trkpt>
      <trkpt lat="44.74367" lon="5.0848">
        <ele>482</ele>
        <time>2011-07-16T08:48:16Z</time>
      </trkpt>
      <trkpt lat="44.74364" lon="5.08487">
        <ele>482</ele>
        <time>2011-07-16T08:48:18Z</time>
      </trkpt>
      <trkpt lat="44.74352" lon="5.08494">
        <ele>481</ele>
        <time>2011-07-16T08:48:22Z</time>
      </trkpt>
      <trkpt lat="44.74345" lon="5.08497">
        <ele>481</ele>
        <time>2011-07-16T08:48:24Z</time>
      </trkpt>
      <trkpt lat="44.74333" lon="5.08502">
        <ele>480</ele>
        <time>2011-07-16T08:48:28Z</time>
      </trkpt>
      <trkpt lat="44.74318" lon="5.0851">
        <ele>479</ele>
        <time>2011-07-16T08:48:32Z</time>
      </trkpt>
      <trkpt lat="44.7431" lon="5.08512">
        <ele>479</ele>
        <time>2011-07-16T08:48:34Z</time>
      </trkpt>
      <trkpt lat="44.74303" lon="5.08516">
        <ele>478</ele>
        <time>2011-07-16T08:48:36Z</time>
      </trkpt>
      <trkpt lat="44.74254" lon="5.08552">
        <ele>476</ele>
        <time>2011-07-16T08:49:07Z</time>
      </trkpt>
      <trkpt lat="44.74188" lon="5.08599">
        <ele>474</ele>
        <time>2011-07-16T08:49:37Z</time>
      </trkpt>
      <trkpt lat="44.74098" lon="5.08624">
        <ele>472</ele>
        <time>2011-07-16T08:50:01Z</time>
      </trkpt>
      <trkpt lat="44.74035" lon="5.08608">
        <ele>472</ele>
        <time>2011-07-16T08:50:59Z</time>
      </trkpt>
      <trkpt lat="44.74029" lon="5.08613">
        <ele>472</ele>
        <time>2011-07-16T08:51:20Z</time>
      </trkpt>
      <trkpt lat="44.74027" lon="5.0862">
        <ele>472</ele>
        <time>2011-07-16T08:51:24Z</time>
      </trkpt>
      <trkpt lat="44.74023" lon="5.08624">
        <ele>472</ele>
        <time>2011-07-16T08:51:27Z</time>
      </trkpt>
      <trkpt lat="44.73965" lon="5.08662">
        <ele>470</ele>
        <time>2011-07-16T08:51:53Z</time>
      </trkpt>
      <trkpt lat="44.73944" lon="5.0867">
        <ele>463</ele>
        <time>2011-07-16T08:53:08Z</time>
      </trkpt>
      <trkpt lat="44.73929" lon="5.08675">
        <ele>463</ele>
        <time>2011-07-16T08:53:12Z</time>
      </trkpt>
      <trkpt lat="44.73805" lon="5.08699">
        <ele>452</ele>
        <time>2011-07-16T08:53:44Z</time>
      </trkpt>
      <trkpt lat="44.738" lon="5.08698">
        <ele>452</ele>
        <time>2011-07-16T08:53:46Z</time>
      </trkpt>
      <trkpt lat="44.73764" lon="5.08695">
        <ele>447</ele>
        <time>2011-07-16T08:54:03Z</time>
      </trkpt>
      <trkpt lat="44.7369" lon="5.08701">
        <ele>446</ele>
        <time>2011-07-16T08:54:33Z</time>
      </trkpt>
      <trkpt lat="44.73627" lon="5.08705">
        <ele>445</ele>
        <time>2011-07-16T08:55:04Z</time>
      </trkpt>
      <trkpt lat="44.73604" lon="5.08713">
        <ele>445</ele>
        <time>2011-07-16T08:55:28Z</time>
      </trkpt>
      <trkpt lat="44.73599" lon="5.0871">
        <ele>446</ele>
        <time>2011-07-16T08:55:36Z</time>
      </trkpt>
      <trkpt lat="44.73596" lon="5.08716">
        <ele>446</ele>
        <time>2011-07-16T08:55:49Z</time>
      </trkpt>
      <trkpt lat="44.73587" lon="5.08715">
        <ele>447</ele>
        <time>2011-07-16T08:56:06Z</time>
      </trkpt>
      <trkpt lat="44.73579" lon="5.08714">
        <ele>448</ele>
        <time>2011-07-16T08:56:22Z</time>
      </trkpt>
      <trkpt lat="44.73536" lon="5.0871">
        <ele>449</ele>
        <time>2011-07-16T08:56:52Z</time>
      </trkpt>
      <trkpt lat="44.73474" lon="5.087">
        <ele>452</ele>
        <time>2011-07-16T08:57:23Z</time>
      </trkpt>
      <trkpt lat="44.73396" lon="5.0869">
        <ele>455</ele>
        <time>2011-07-16T08:57:54Z</time>
      </trkpt>
      <trkpt lat="44.73297" lon="5.08664">
        <ele>455</ele>
        <time>2011-07-16T08:58:26Z</time>
      </trkpt>
      <trkpt lat="44.73271" lon="5.08656">
        <ele>455</ele>
        <time>2011-07-16T08:58:34Z</time>
      </trkpt>
      <trkpt lat="44.73234" lon="5.08646">
        <ele>452</ele>
        <time>2011-07-16T08:58:43Z</time>
      </trkpt>
      <trkpt lat="44.73171" lon="5.08626">
        <ele>451</ele>
        <time>2011-07-16T08:59:15Z</time>
      </trkpt>
      <trkpt lat="44.73163" lon="5.08635">
        <ele>450</ele>
        <time>2011-07-16T08:59:23Z</time>
      </trkpt>
      <trkpt lat="44.73158" lon="5.08647">
        <ele>449</ele>
        <time>2011-07-16T08:59:27Z</time>
      </trkpt>
      <trkpt lat="44.73153" lon="5.08654">
        <ele>447</ele>
        <time>2011-07-16T08:59:29Z</time>
      </trkpt>
      <trkpt lat="44.73149" lon="5.08659">
        <ele>446</ele>
        <time>2011-07-16T08:59:32Z</time>
      </trkpt>
      <trkpt lat="44.73143" lon="5.0866">
        <ele>446</ele>
        <time>2011-07-16T08:59:36Z</time>
      </trkpt>
      <trkpt lat="44.73078" lon="5.08638">
        <ele>433</ele>
        <time>2011-07-16T09:00:08Z</time>
      </trkpt>
      <trkpt lat="44.73071" lon="5.08634">
        <ele>433</ele>
        <time>2011-07-16T09:00:10Z</time>
      </trkpt>
      <trkpt lat="44.73031" lon="5.08615">
        <ele>427</ele>
        <time>2011-07-16T09:00:20Z</time>
      </trkpt>
      <trkpt lat="44.72964" lon="5.08579">
        <ele>425</ele>
        <time>2011-07-16T09:00:43Z</time>
      </trkpt>
      <trkpt lat="44.72946" lon="5.08567">
        <ele>422</ele>
        <time>2011-07-16T09:01:17Z</time>
      </trkpt>
      <trkpt lat="44.72887" lon="5.085">
        <ele>415</ele>
        <time>2011-07-16T09:01:48Z</time>
      </trkpt>
      <trkpt lat="44.72883" lon="5.08492">
        <ele>414</ele>
        <time>2011-07-16T09:01:50Z</time>
      </trkpt>
      <trkpt lat="44.72878" lon="5.08482">
        <ele>409</ele>
        <time>2011-07-16T09:01:52Z</time>
      </trkpt>
      <trkpt lat="44.72872" lon="5.08479">
        <ele>407</ele>
        <time>2011-07-16T09:01:54Z</time>
      </trkpt>
      <trkpt lat="44.72855" lon="5.08482">
        <ele>405</ele>
        <time>2011-07-16T09:02:01Z</time>
      </trkpt>
      <trkpt lat="44.72855" lon="5.08472">
        <ele>405</ele>
        <time>2011-07-16T09:02:06Z</time>
      </trkpt>
      <trkpt lat="44.72858" lon="5.08447">
        <ele>404</ele>
        <time>2011-07-16T09:02:13Z</time>
      </trkpt>
      <trkpt lat="44.72856" lon="5.0844">
        <ele>404</ele>
        <time>2011-07-16T09:02:15Z</time>
      </trkpt>
      <trkpt lat="44.72841" lon="5.08416">
        <ele>400</ele>
        <time>2011-07-16T09:02:20Z</time>
      </trkpt>
      <trkpt lat="44.72824" lon="5.08386">
        <ele>400</ele>
        <time>2011-07-16T09:02:28Z</time>
      </trkpt>
      <trkpt lat="44.72772" lon="5.08316">
        <ele>395</ele>
        <time>2011-07-16T09:02:48Z</time>
      </trkpt>
      <trkpt lat="44.72775" lon="5.08319">
        <ele>395</ele>
        <time>2011-07-16T09:02:55Z</time>
      </trkpt>
      <trkpt lat="44.72777" lon="5.08306">
        <ele>395</ele>
        <time>2011-07-16T09:03:03Z</time>
      </trkpt>
      <trkpt lat="44.7278" lon="5.08298">
        <ele>394</ele>
        <time>2011-07-16T09:03:16Z</time>
      </trkpt>
      <trkpt lat="44.72779" lon="5.08295">
        <ele>394</ele>
        <time>2011-07-16T09:03:45Z</time>
      </trkpt>
      <trkpt lat="44.72783" lon="5.08297">
        <ele>390</ele>
        <time>2011-07-16T09:05:05Z</time>
      </trkpt>
      <trkpt lat="44.72778" lon="5.08304">
        <ele>389</ele>
        <time>2011-07-16T09:05:45Z</time>
      </trkpt>
      <trkpt lat="44.72775" lon="5.08311">
        <ele>389</ele>
        <time>2011-07-16T09:06:25Z</time>
      </trkpt>
      <trkpt lat="44.72771" lon="5.08316">
        <ele>389</ele>
        <time>2011-07-16T09:06:30Z</time>
      </trkpt>
      <trkpt lat="44.72748" lon="5.08322">
        <ele>388</ele>
        <time>2011-07-16T09:06:39Z</time>
      </trkpt>
      <trkpt lat="44.72728" lon="5.08322">
        <ele>387</ele>
        <time>2011-07-16T09:06:47Z</time>
      </trkpt>
      <trkpt lat="44.72722" lon="5.08327">
        <ele>387</ele>
        <time>2011-07-16T09:06:49Z</time>
      </trkpt>
      <trkpt lat="44.72708" lon="5.0834">
        <ele>383</ele>
        <time>2011-07-16T09:06:52Z</time>
      </trkpt>
      <trkpt lat="44.72659" lon="5.08423">
        <ele>381</ele>
        <time>2011-07-16T09:07:17Z</time>
      </trkpt>
      <trkpt lat="44.72623" lon="5.08443">
        <ele>381</ele>
        <time>2011-07-16T09:07:34Z</time>
      </trkpt>
      <trkpt lat="44.72617" lon="5.08454">
        <ele>381</ele>
        <time>2011-07-16T09:07:43Z</time>
      </trkpt>
      <trkpt lat="44.72615" lon="5.08461">
        <ele>381</ele>
        <time>2011-07-16T09:07:49Z</time>
      </trkpt>
      <trkpt lat="44.72611" lon="5.08466">
        <ele>380</ele>
        <time>2011-07-16T09:08:08Z</time>
      </trkpt>
      <trkpt lat="44.72609" lon="5.08469">
        <ele>379</ele>
        <time>2011-07-16T09:08:30Z</time>
      </trkpt>
      <trkpt lat="44.72605" lon="5.08474">
        <ele>379</ele>
        <time>2011-07-16T09:08:33Z</time>
      </trkpt>
      <trkpt lat="44.72592" lon="5.08492">
        <ele>377</ele>
        <time>2011-07-16T09:08:42Z</time>
      </trkpt>
      <trkpt lat="44.72591" lon="5.08501">
        <ele>376</ele>
        <time>2011-07-16T09:08:46Z</time>
      </trkpt>
      <trkpt lat="44.7259" lon="5.08508">
        <ele>376</ele>
        <time>2011-07-16T09:08:49Z</time>
      </trkpt>
      <trkpt lat="44.72586" lon="5.08514">
        <ele>375</ele>
        <time>2011-07-16T09:08:52Z</time>
      </trkpt>
      <trkpt lat="44.72571" lon="5.0852">
        <ele>374</ele>
        <time>2011-07-16T09:09:05Z</time>
      </trkpt>
      <trkpt lat="44.72559" lon="5.08518">
        <ele>373</ele>
        <time>2011-07-16T09:09:12Z</time>
      </trkpt>
      <trkpt lat="44.72484" lon="5.08555">
        <ele>373</ele>
        <time>2011-07-16T09:09:44Z</time>
      </trkpt>
      <trkpt lat="44.7248" lon="5.08557">
        <ele>373</ele>
        <time>2011-07-16T09:09:55Z</time>
      </trkpt>
      <trkpt lat="44.72474" lon="5.08564">
        <ele>373</ele>
        <time>2011-07-16T09:10:09Z</time>
      </trkpt>
      <trkpt lat="44.72472" lon="5.08566">
        <ele>372</ele>
        <time>2011-07-16T09:10:43Z</time>
      </trkpt>
      <trkpt lat="44.72451" lon="5.08594">
        <ele>371</ele>
        <time>2011-07-16T09:10:53Z</time>
      </trkpt>
      <trkpt lat="44.72448" lon="5.08606">
        <ele>370</ele>
        <time>2011-07-16T09:10:55Z</time>
      </trkpt>
      <trkpt lat="44.72431" lon="5.08677">
        <ele>369</ele>
        <time>2011-07-16T09:11:11Z</time>
      </trkpt>
      <trkpt lat="44.72389" lon="5.0872">
        <ele>368</ele>
        <time>2011-07-16T09:11:31Z</time>
      </trkpt>
      <trkpt lat="44.72384" lon="5.08721">
        <ele>368</ele>
        <time>2011-07-16T09:11:35Z</time>
      </trkpt>
      <trkpt lat="44.72386" lon="5.08726">
        <ele>367</ele>
        <time>2011-07-16T09:12:13Z</time>
      </trkpt>
      <trkpt lat="44.72382" lon="5.08716">
        <ele>367</ele>
        <time>2011-07-16T09:12:31Z</time>
      </trkpt>
      <trkpt lat="44.72381" lon="5.08722">
        <ele>367</ele>
        <time>2011-07-16T09:12:53Z</time>
      </trkpt>
      <trkpt lat="44.7237" lon="5.08725">
        <ele>364</ele>
        <time>2011-07-16T09:13:10Z</time>
      </trkpt>
      <trkpt lat="44.7236" lon="5.08725">
        <ele>364</ele>
        <time>2011-07-16T09:13:13Z</time>
      </trkpt>
      <trkpt lat="44.72319" lon="5.08723">
        <ele>355</ele>
        <time>2011-07-16T09:13:22Z</time>
      </trkpt>
      <trkpt lat="44.72195" lon="5.08709">
        <ele>351</ele>
        <time>2011-07-16T09:13:51Z</time>
      </trkpt>
      <trkpt lat="44.72178" lon="5.08706">
        <ele>348</ele>
        <time>2011-07-16T09:13:55Z</time>
      </trkpt>
      <trkpt lat="44.72169" lon="5.08705">
        <ele>348</ele>
        <time>2011-07-16T09:13:57Z</time>
      </trkpt>
      <trkpt lat="44.72067" lon="5.08704">
        <ele>346</ele>
        <time>2011-07-16T09:14:27Z</time>
      </trkpt>
      <trkpt lat="44.71963" lon="5.0867">
        <ele>345</ele>
        <time>2011-07-16T09:14:58Z</time>
      </trkpt>
      <trkpt lat="44.71825" lon="5.08624">
        <ele>331</ele>
        <time>2011-07-16T09:15:28Z</time>
      </trkpt>
      <trkpt lat="44.71688" lon="5.08573">
        <ele>323</ele>
        <time>2011-07-16T09:16:01Z</time>
      </trkpt>
      <trkpt lat="44.71667" lon="5.08567">
        <ele>319</ele>
        <time>2011-07-16T09:16:06Z</time>
      </trkpt>
      <trkpt lat="44.71655" lon="5.08565">
        <ele>319</ele>
        <time>2011-07-16T09:16:10Z</time>
      </trkpt>
      <trkpt lat="44.71634" lon="5.08563">
        <ele>315</ele>
        <time>2011-07-16T09:16:15Z</time>
      </trkpt>
      <trkpt lat="44.71626" lon="5.08563">
        <ele>315</ele>
        <time>2011-07-16T09:16:17Z</time>
      </trkpt>
      <trkpt lat="44.71601" lon="5.08555">
        <ele>311</ele>
        <time>2011-07-16T09:16:23Z</time>
      </trkpt>
      <trkpt lat="44.71565" lon="5.08552">
        <ele>310</ele>
        <time>2011-07-16T09:16:32Z</time>
      </trkpt>
      <trkpt lat="44.71534" lon="5.08561">
        <ele>304</ele>
        <time>2011-07-16T09:16:38Z</time>
      </trkpt>
      <trkpt lat="44.71526" lon="5.08575">
        <ele>301</ele>
        <time>2011-07-16T09:16:41Z</time>
      </trkpt>
      <trkpt lat="44.71526" lon="5.08582">
        <ele>300</ele>
        <time>2011-07-16T09:16:44Z</time>
      </trkpt>
      <trkpt lat="44.71525" lon="5.08582">
        <ele>291</ele>
        <time>2011-07-16T09:18:08Z</time>
      </trkpt>
      <trkpt lat="44.71519" lon="5.08594">
        <ele>289</ele>
        <time>2011-07-16T09:18:23Z</time>
      </trkpt>
      <trkpt lat="44.71517" lon="5.08603">
        <ele>289</ele>
        <time>2011-07-16T09:18:26Z</time>
      </trkpt>
      <trkpt lat="44.71521" lon="5.08607">
        <ele>288</ele>
        <time>2011-07-16T09:18:29Z</time>
      </trkpt>
      <trkpt lat="44.71572" lon="5.08684">
        <ele>281</ele>
        <time>2011-07-16T09:19:00Z</time>
      </trkpt>
      <trkpt lat="44.71578" lon="5.08711">
        <ele>279</ele>
        <time>2011-07-16T09:19:09Z</time>
      </trkpt>
      <trkpt lat="44.71592" lon="5.08727">
        <ele>277</ele>
        <time>2011-07-16T09:19:16Z</time>
      </trkpt>
      <trkpt lat="44.71594" lon="5.0873">
        <ele>276</ele>
        <time>2011-07-16T09:19:23Z</time>
      </trkpt>
      <trkpt lat="44.71597" lon="5.0873">
        <ele>268</ele>
        <time>2011-07-16T09:20:21Z</time>
      </trkpt>
      <trkpt lat="44.71597" lon="5.08738">
        <ele>266</ele>
        <time>2011-07-16T09:20:40Z</time>
      </trkpt>
      <trkpt lat="44.71609" lon="5.08766">
        <ele>263</ele>
        <time>2011-07-16T09:20:49Z</time>
      </trkpt>
      <trkpt lat="44.71609" lon="5.08772">
        <ele>263</ele>
        <time>2011-07-16T09:20:51Z</time>
      </trkpt>
      <trkpt lat="44.71597" lon="5.08788">
        <ele>255</ele>
        <time>2011-07-16T09:20:56Z</time>
      </trkpt>
      <trkpt lat="44.71593" lon="5.08796">
        <ele>254</ele>
        <time>2011-07-16T09:20:58Z</time>
      </trkpt>
      <trkpt lat="44.71597" lon="5.08803">
        <ele>253</ele>
        <time>2011-07-16T09:21:36Z</time>
      </trkpt>
      <trkpt lat="44.71588" lon="5.08797">
        <ele>247</ele>
        <time>2011-07-16T09:22:23Z</time>
      </trkpt>
      <trkpt lat="44.71588" lon="5.08805">
        <ele>245</ele>
        <time>2011-07-16T09:22:37Z</time>
      </trkpt>
      <trkpt lat="44.71545" lon="5.08917">
        <ele>239</ele>
        <time>2011-07-16T09:23:08Z</time>
      </trkpt>
      <trkpt lat="44.71535" lon="5.08935">
        <ele>238</ele>
        <time>2011-07-16T09:23:14Z</time>
      </trkpt>
      <trkpt lat="44.71527" lon="5.08931">
        <ele>238</ele>
        <time>2011-07-16T09:23:18Z</time>
      </trkpt>
      <trkpt lat="44.71512" lon="5.08914">
        <ele>237</ele>
        <time>2011-07-16T09:23:24Z</time>
      </trkpt>
      <trkpt lat="44.71485" lon="5.0888">
        <ele>233</ele>
        <time>2011-07-16T09:23:33Z</time>
      </trkpt>
      <trkpt lat="44.71465" lon="5.08858">
        <ele>233</ele>
        <time>2011-07-16T09:23:39Z</time>
      </trkpt>
      <trkpt lat="44.71398" lon="5.08761">
        <ele>235</ele>
        <time>2011-07-16T09:24:00Z</time>
      </trkpt>
      <trkpt lat="44.71391" lon="5.08751">
        <ele>234</ele>
        <time>2011-07-16T09:24:02Z</time>
      </trkpt>
      <trkpt lat="44.71291" lon="5.08588">
        <ele>231</ele>
        <time>2011-07-16T09:24:33Z</time>
      </trkpt>
      <trkpt lat="44.71285" lon="5.08578">
        <ele>231</ele>
        <time>2011-07-16T09:24:35Z</time>
      </trkpt>
      <trkpt lat="44.71274" lon="5.08559">
        <ele>232</ele>
        <time>2011-07-16T09:24:39Z</time>
      </trkpt>
      <trkpt lat="44.71248" lon="5.08525">
        <ele>232</ele>
        <time>2011-07-16T09:24:49Z</time>
      </trkpt>
      <trkpt lat="44.71242" lon="5.0853">
        <ele>232</ele>
        <time>2011-07-16T09:24:51Z</time>
      </trkpt>
      <trkpt lat="44.71223" lon="5.08577">
        <ele>231</ele>
        <time>2011-07-16T09:25:00Z</time>
      </trkpt>
      <trkpt lat="44.71184" lon="5.08746">
        <ele>229</ele>
        <time>2011-07-16T09:25:31Z</time>
      </trkpt>
      <trkpt lat="44.71132" lon="5.08906">
        <ele>229</ele>
        <time>2011-07-16T09:26:01Z</time>
      </trkpt>
      <trkpt lat="44.71101" lon="5.08956">
        <ele>230</ele>
        <time>2011-07-16T09:26:11Z</time>
      </trkpt>
      <trkpt lat="44.71001" lon="5.09075">
        <ele>229</ele>
        <time>2011-07-16T09:26:42Z</time>
      </trkpt>
      <trkpt lat="44.70921" lon="5.09062">
        <ele>230</ele>
        <time>2011-07-16T09:27:04Z</time>
      </trkpt>
      <trkpt lat="44.70752" lon="5.08974">
        <ele>222</ele>
        <time>2011-07-16T09:27:34Z</time>
      </trkpt>
      <trkpt lat="44.70725" lon="5.08961">
        <ele>220</ele>
        <time>2011-07-16T09:27:39Z</time>
      </trkpt>
      <trkpt lat="44.70636" lon="5.08904">
        <ele>218</ele>
        <time>2011-07-16T09:28:00Z</time>
      </trkpt>
      <trkpt lat="44.70634" lon="5.08895">
        <ele>218</ele>
        <time>2011-07-16T09:28:02Z</time>
      </trkpt>
      <trkpt lat="44.70632" lon="5.08858">
        <ele>222</ele>
        <time>2011-07-16T09:28:08Z</time>
      </trkpt>
      <trkpt lat="44.70667" lon="5.08651">
        <ele>223</ele>
        <time>2011-07-16T09:28:38Z</time>
      </trkpt>
      <trkpt lat="44.70738" lon="5.08495">
        <ele>223</ele>
        <time>2011-07-16T09:29:08Z</time>
      </trkpt>
      <trkpt lat="44.70786" lon="5.08408">
        <ele>219</ele>
        <time>2011-07-16T09:29:28Z</time>
      </trkpt>
      <trkpt lat="44.70877" lon="5.08251">
        <ele>219</ele>
        <time>2011-07-16T09:29:59Z</time>
      </trkpt>
      <trkpt lat="44.70972" lon="5.08066">
        <ele>221</ele>
        <time>2011-07-16T09:30:32Z</time>
      </trkpt>
      <trkpt lat="44.71024" lon="5.07891">
        <ele>223</ele>
        <time>2011-07-16T09:31:05Z</time>
      </trkpt>
      <trkpt lat="44.71038" lon="5.07753">
        <ele>222</ele>
        <time>2011-07-16T09:31:29Z</time>
      </trkpt>
      <trkpt lat="44.71039" lon="5.07737">
        <ele>222</ele>
        <time>2011-07-16T09:31:32Z</time>
      </trkpt>
      <trkpt lat="44.71055" lon="5.07549">
        <ele>218</ele>
        <time>2011-07-16T09:32:03Z</time>
      </trkpt>
      <trkpt lat="44.71055" lon="5.07376">
        <ele>217</ele>
        <time>2011-07-16T09:32:30Z</time>
      </trkpt>
      <trkpt lat="44.71032" lon="5.07364">
        <ele>217</ele>
        <time>2011-07-16T09:32:36Z</time>
      </trkpt>
      <trkpt lat="44.71027" lon="5.07355">
        <ele>216</ele>
        <time>2011-07-16T09:32:38Z</time>
      </trkpt>
      <trkpt lat="44.71017" lon="5.07164">
        <ele>218</ele>
        <time>2011-07-16T09:33:10Z</time>
      </trkpt>
      <trkpt lat="44.71005" lon="5.06966">
        <ele>219</ele>
        <time>2011-07-16T09:33:41Z</time>
      </trkpt>
      <trkpt lat="44.70997" lon="5.06758">
        <ele>217</ele>
        <time>2011-07-16T09:34:13Z</time>
      </trkpt>
      <trkpt lat="44.70997" lon="5.06529">
        <ele>219</ele>
        <time>2011-07-16T09:34:44Z</time>
      </trkpt>
      <trkpt lat="44.71002" lon="5.06487">
        <ele>218</ele>
        <time>2011-07-16T09:34:50Z</time>
      </trkpt>
      <trkpt lat="44.71014" lon="5.06439">
        <ele>219</ele>
        <time>2011-07-16T09:34:57Z</time>
      </trkpt>
      <trkpt lat="44.71081" lon="5.06217">
        <ele>215</ele>
        <time>2011-07-16T09:35:29Z</time>
      </trkpt>
      <trkpt lat="44.71086" lon="5.0619">
        <ele>215</ele>
        <time>2011-07-16T09:35:33Z</time>
      </trkpt>
      <trkpt lat="44.71159" lon="5.05983">
        <ele>213</ele>
        <time>2011-07-16T09:36:04Z</time>
      </trkpt>
      <trkpt lat="44.71194" lon="5.05917">
        <ele>212</ele>
        <time>2011-07-16T09:36:15Z</time>
      </trkpt>
      <trkpt lat="44.7123" lon="5.05849">
        <ele>214</ele>
        <time>2011-07-16T09:36:28Z</time>
      </trkpt>
      <trkpt lat="44.71261" lon="5.05752">
        <ele>212</ele>
        <time>2011-07-16T09:36:46Z</time>
      </trkpt>
      <trkpt lat="44.71334" lon="5.05725">
        <ele>212</ele>
        <time>2011-07-16T09:37:06Z</time>
      </trkpt>
      <trkpt lat="44.71416" lon="5.0571">
        <ele>216</ele>
        <time>2011-07-16T09:37:27Z</time>
      </trkpt>
      <trkpt lat="44.71418" lon="5.05703">
        <ele>216</ele>
        <time>2011-07-16T09:37:30Z</time>
      </trkpt>
      <trkpt lat="44.71412" lon="5.05673">
        <ele>215</ele>
        <time>2011-07-16T09:37:36Z</time>
      </trkpt>
      <trkpt lat="44.71405" lon="5.0551">
        <ele>214</ele>
        <time>2011-07-16T09:38:06Z</time>
      </trkpt>
      <trkpt lat="44.7139" lon="5.05378">
        <ele>208</ele>
        <time>2011-07-16T09:38:28Z</time>
      </trkpt>
      <trkpt lat="44.71377" lon="5.05364">
        <ele>208</ele>
        <time>2011-07-16T09:38:32Z</time>
      </trkpt>
      <trkpt lat="44.71375" lon="5.05359">
        <ele>208</ele>
        <time>2011-07-16T09:38:38Z</time>
      </trkpt>
      <trkpt lat="44.71377" lon="5.05353">
        <ele>207</ele>
        <time>2011-07-16T09:38:46Z</time>
      </trkpt>
      <trkpt lat="44.71377" lon="5.05344">
        <ele>207</ele>
        <time>2011-07-16T09:38:56Z</time>
      </trkpt>
      <trkpt lat="44.71378" lon="5.0534">
        <ele>207</ele>
        <time>2011-07-16T09:39:35Z</time>
      </trkpt>
      <trkpt lat="44.71384" lon="5.0533">
        <ele>206</ele>
        <time>2011-07-16T09:39:49Z</time>
      </trkpt>
      <trkpt lat="44.7141" lon="5.05188">
        <ele>205</ele>
        <time>2011-07-16T09:40:21Z</time>
      </trkpt>
      <trkpt lat="44.71447" lon="5.05007">
        <ele>205</ele>
        <time>2011-07-16T09:40:51Z</time>
      </trkpt>
      <trkpt lat="44.71504" lon="5.04817">
        <ele>209</ele>
        <time>2011-07-16T09:41:22Z</time>
      </trkpt>
      <trkpt lat="44.71516" lon="5.04738">
        <ele>208</ele>
        <time>2011-07-16T09:41:36Z</time>
      </trkpt>
      <trkpt lat="44.71561" lon="5.04639">
        <ele>212</ele>
        <time>2011-07-16T09:41:55Z</time>
      </trkpt>
      <trkpt lat="44.7159" lon="5.04523">
        <ele>203</ele>
        <time>2011-07-16T09:42:13Z</time>
      </trkpt>
      <trkpt lat="44.71581" lon="5.04492">
        <ele>203</ele>
        <time>2011-07-16T09:42:21Z</time>
      </trkpt>
      <trkpt lat="44.71591" lon="5.04464">
        <ele>203</ele>
        <time>2011-07-16T09:42:27Z</time>
      </trkpt>
      <trkpt lat="44.71596" lon="5.04456">
        <ele>203</ele>
        <time>2011-07-16T09:42:29Z</time>
      </trkpt>
      <trkpt lat="44.71661" lon="5.04326">
        <ele>211</ele>
        <time>2011-07-16T09:42:54Z</time>
      </trkpt>
      <trkpt lat="44.71717" lon="5.04212">
        <ele>207</ele>
        <time>2011-07-16T09:43:11Z</time>
      </trkpt>
      <trkpt lat="44.71716" lon="5.04203">
        <ele>207</ele>
        <time>2011-07-16T09:43:13Z</time>
      </trkpt>
      <trkpt lat="44.71719" lon="5.04195">
        <ele>207</ele>
        <time>2011-07-16T09:43:15Z</time>
      </trkpt>
      <trkpt lat="44.71724" lon="5.04184">
        <ele>208</ele>
        <time>2011-07-16T09:43:17Z</time>
      </trkpt>
      <trkpt lat="44.71787" lon="5.04048">
        <ele>208</ele>
        <time>2011-07-16T09:43:48Z</time>
      </trkpt>
      <trkpt lat="44.71807" lon="5.04021">
        <ele>211</ele>
        <time>2011-07-16T09:43:54Z</time>
      </trkpt>
      <trkpt lat="44.71814" lon="5.04004">
        <ele>212</ele>
        <time>2011-07-16T09:43:57Z</time>
      </trkpt>
      <trkpt lat="44.7182" lon="5.0399">
        <ele>212</ele>
        <time>2011-07-16T09:43:59Z</time>
      </trkpt>
      <trkpt lat="44.71866" lon="5.03926">
        <ele>210</ele>
        <time>2011-07-16T09:44:12Z</time>
      </trkpt>
      <trkpt lat="44.719" lon="5.0385">
        <ele>212</ele>
        <time>2011-07-16T09:44:24Z</time>
      </trkpt>
      <trkpt lat="44.71937" lon="5.03791">
        <ele>211</ele>
        <time>2011-07-16T09:44:37Z</time>
      </trkpt>
      <trkpt lat="44.71934" lon="5.03785">
        <ele>210</ele>
        <time>2011-07-16T09:44:39Z</time>
      </trkpt>
      <trkpt lat="44.71935" lon="5.03776">
        <ele>210</ele>
        <time>2011-07-16T09:44:41Z</time>
      </trkpt>
      <trkpt lat="44.71948" lon="5.03748">
        <ele>210</ele>
        <time>2011-07-16T09:44:49Z</time>
      </trkpt>
      <trkpt lat="44.71976" lon="5.03711">
        <ele>210</ele>
        <time>2011-07-16T09:45:05Z</time>
      </trkpt>
      <trkpt lat="44.71981" lon="5.03703">
        <ele>209</ele>
        <time>2011-07-16T09:45:11Z</time>
      </trkpt>
      <trkpt lat="44.7199" lon="5.03683">
        <ele>208</ele>
        <time>2011-07-16T09:45:17Z</time>
      </trkpt>
      <trkpt lat="44.71994" lon="5.03676">
        <ele>207</ele>
        <time>2011-07-16T09:45:19Z</time>
      </trkpt>
      <trkpt lat="44.72051" lon="5.03552">
        <ele>205</ele>
        <time>2011-07-16T09:45:49Z</time>
      </trkpt>
      <trkpt lat="44.72075" lon="5.03409">
        <ele>205</ele>
        <time>2011-07-16T09:46:21Z</time>
      </trkpt>
      <trkpt lat="44.72143" lon="5.03322">
        <ele>202</ele>
        <time>2011-07-16T09:46:52Z</time>
      </trkpt>
      <trkpt lat="44.72154" lon="5.03307">
        <ele>202</ele>
        <time>2011-07-16T09:46:56Z</time>
      </trkpt>
      <trkpt lat="44.72165" lon="5.0329">
        <ele>201</ele>
        <time>2011-07-16T09:47:00Z</time>
      </trkpt>
      <trkpt lat="44.7224" lon="5.03174">
        <ele>200</ele>
        <time>2011-07-16T09:47:30Z</time>
      </trkpt>
      <trkpt lat="44.72321" lon="5.0302">
        <ele>199</ele>
        <time>2011-07-16T09:48:00Z</time>
      </trkpt>
      <trkpt lat="44.72352" lon="5.02947">
        <ele>197</ele>
        <time>2011-07-16T09:48:12Z</time>
      </trkpt>
      <trkpt lat="44.72418" lon="5.02765">
        <ele>196</ele>
        <time>2011-07-16T09:48:42Z</time>
      </trkpt>
      <trkpt lat="44.72503" lon="5.02566">
        <ele>194</ele>
        <time>2011-07-16T09:49:13Z</time>
      </trkpt>
      <trkpt lat="44.72551" lon="5.02454">
        <ele>196</ele>
        <time>2011-07-16T09:49:33Z</time>
      </trkpt>
      <trkpt lat="44.72557" lon="5.02442">
        <ele>195</ele>
        <time>2011-07-16T09:49:35Z</time>
      </trkpt>
      <trkpt lat="44.72569" lon="5.02417">
        <ele>194</ele>
        <time>2011-07-16T09:49:39Z</time>
      </trkpt>
      <trkpt lat="44.72586" lon="5.02374">
        <ele>196</ele>
        <time>2011-07-16T09:49:46Z</time>
      </trkpt>
      <trkpt lat="44.72663" lon="5.02155">
        <ele>200</ele>
        <time>2011-07-16T09:50:19Z</time>
      </trkpt>
      <trkpt lat="44.72673" lon="5.02123">
        <ele>199</ele>
        <time>2011-07-16T09:50:28Z</time>
      </trkpt>
      <trkpt lat="44.72675" lon="5.02116">
        <ele>198</ele>
        <time>2011-07-16T09:50:32Z</time>
      </trkpt>
      <trkpt lat="44.72696" lon="5.01962">
        <ele>194</ele>
        <time>2011-07-16T09:51:02Z</time>
      </trkpt>
      <trkpt lat="44.72714" lon="5.01823">
        <ele>193</ele>
        <time>2011-07-16T09:51:33Z</time>
      </trkpt>
      <trkpt lat="44.72803" lon="5.01774">
        <ele>193</ele>
        <time>2011-07-16T09:52:04Z</time>
      </trkpt>
      <trkpt lat="44.72819" lon="5.01767">
        <ele>193</ele>
        <time>2011-07-16T09:52:11Z</time>
      </trkpt>
      <trkpt lat="44.72821" lon="5.0176">
        <ele>193</ele>
        <time>2011-07-16T09:52:15Z</time>
      </trkpt>
      <trkpt lat="44.72831" lon="5.01703">
        <ele>192</ele>
        <time>2011-07-16T09:52:46Z</time>
      </trkpt>
      <trkpt lat="44.72858" lon="5.01517">
        <ele>187</ele>
        <time>2011-07-16T09:53:17Z</time>
      </trkpt>
      <trkpt lat="44.72866" lon="5.01452">
        <ele>188</ele>
        <time>2011-07-16T09:53:27Z</time>
      </trkpt>
      <trkpt lat="44.72892" lon="5.01323">
        <ele>186</ele>
        <time>2011-07-16T09:53:47Z</time>
      </trkpt>
      <trkpt lat="44.72895" lon="5.01297">
        <ele>187</ele>
        <time>2011-07-16T09:53:51Z</time>
      </trkpt>
      <trkpt lat="44.72919" lon="5.0109">
        <ele>183</ele>
        <time>2011-07-16T09:54:22Z</time>
      </trkpt>
      <trkpt lat="44.72951" lon="5.0088">
        <ele>184</ele>
        <time>2011-07-16T09:54:53Z</time>
      </trkpt>
      <trkpt lat="44.72959" lon="5.00875">
        <ele>184</ele>
        <time>2011-07-16T09:54:55Z</time>
      </trkpt>
      <trkpt lat="44.72966" lon="5.00884">
        <ele>184</ele>
        <time>2011-07-16T09:54:56Z</time>
      </trkpt>
      <trkpt lat="44.73098" lon="5.01007">
        <ele>184</ele>
        <time>2011-07-16T09:55:27Z</time>
      </trkpt>
      <trkpt lat="44.73217" lon="5.01121">
        <ele>184</ele>
        <time>2011-07-16T09:55:58Z</time>
      </trkpt>
      <trkpt lat="44.73314" lon="5.01214">
        <ele>184</ele>
        <time>2011-07-16T09:56:29Z</time>
      </trkpt>
      <trkpt lat="44.73341" lon="5.01232">
        <ele>184</ele>
        <time>2011-07-16T09:56:41Z</time>
      </trkpt>
      <trkpt lat="44.73383" lon="5.01209">
        <ele>185</ele>
        <time>2011-07-16T09:56:58Z</time>
      </trkpt>
      <trkpt lat="44.73414" lon="5.01162">
        <ele>186</ele>
        <time>2011-07-16T09:57:15Z</time>
      </trkpt>
      <trkpt lat="44.73425" lon="5.01158">
        <ele>186</ele>
        <time>2011-07-16T09:57:23Z</time>
      </trkpt>
      <trkpt lat="44.73438" lon="5.01137">
        <ele>186</ele>
        <time>2011-07-16T09:57:29Z</time>
      </trkpt>
      <trkpt lat="44.73444" lon="5.01137">
        <ele>186</ele>
        <time>2011-07-16T09:57:31Z</time>
      </trkpt>
      <trkpt lat="44.73452" lon="5.01146">
        <ele>186</ele>
        <time>2011-07-16T09:57:35Z</time>
      </trkpt>
      <trkpt lat="44.73516" lon="5.01218">
        <ele>187</ele>
        <time>2011-07-16T09:58:03Z</time>
      </trkpt>
      <trkpt lat="44.73528" lon="5.01218">
        <ele>187</ele>
        <time>2011-07-16T09:58:07Z</time>
      </trkpt>
      <trkpt lat="44.73574" lon="5.01173">
        <ele>189</ele>
        <time>2011-07-16T09:58:38Z</time>
      </trkpt>
      <trkpt lat="44.73611" lon="5.0109">
        <ele>192</ele>
        <time>2011-07-16T09:59:09Z</time>
      </trkpt>
      <trkpt lat="44.73673" lon="5.01012">
        <ele>195</ele>
        <time>2011-07-16T09:59:36Z</time>
      </trkpt>
      <trkpt lat="44.73755" lon="5.0099">
        <ele>199</ele>
        <time>2011-07-16T10:00:07Z</time>
      </trkpt>
      <trkpt lat="44.73829" lon="5.00911">
        <ele>202</ele>
        <time>2011-07-16T10:00:38Z</time>
      </trkpt>
      <trkpt lat="44.73892" lon="5.00827">
        <ele>206</ele>
        <time>2011-07-16T10:01:06Z</time>
      </trkpt>
      <trkpt lat="44.73926" lon="5.00841">
        <ele>207</ele>
        <time>2011-07-16T10:01:25Z</time>
      </trkpt>
      <trkpt lat="44.73962" lon="5.00877">
        <ele>208</ele>
        <time>2011-07-16T10:01:45Z</time>
      </trkpt>
      <trkpt lat="44.73965" lon="5.0089">
        <ele>209</ele>
        <time>2011-07-16T10:01:51Z</time>
      </trkpt>
      <trkpt lat="44.7397" lon="5.00887">
        <ele>209</ele>
        <time>2011-07-16T10:01:56Z</time>
      </trkpt>
      <trkpt lat="44.74019" lon="5.00861">
        <ele>215</ele>
        <time>2011-07-16T10:02:28Z</time>
      </trkpt>
      <trkpt lat="44.74046" lon="5.00845">
        <ele>219</ele>
        <time>2011-07-16T10:02:51Z</time>
      </trkpt>
      <trkpt lat="44.74052" lon="5.00848">
        <ele>220</ele>
        <time>2011-07-16T10:02:56Z</time>
      </trkpt>
      <trkpt lat="44.74051" lon="5.00861">
        <ele>222</ele>
        <time>2011-07-16T10:03:08Z</time>
      </trkpt>
      <trkpt lat="44.74032" lon="5.00902">
        <ele>224</ele>
        <time>2011-07-16T10:03:36Z</time>
      </trkpt>
      <trkpt lat="44.74027" lon="5.00907">
        <ele>224</ele>
        <time>2011-07-16T10:03:41Z</time>
      </trkpt>
      <trkpt lat="44.74022" lon="5.00909">
        <ele>225</ele>
        <time>2011-07-16T10:03:50Z</time>
      </trkpt>
      <trkpt lat="44.74019" lon="5.00915">
        <ele>225</ele>
        <time>2011-07-16T10:03:58Z</time>
      </trkpt>
      <trkpt lat="44.74017" lon="5.00921">
        <ele>226</ele>
        <time>2011-07-16T10:04:03Z</time>
      </trkpt>
      <trkpt lat="44.74019" lon="5.00939">
        <ele>227</ele>
        <time>2011-07-16T10:04:13Z</time>
      </trkpt>
      <trkpt lat="44.74015" lon="5.00959">
        <ele>229</ele>
        <time>2011-07-16T10:04:34Z</time>
      </trkpt>
      <trkpt lat="44.74019" lon="5.01005">
        <ele>233</ele>
        <time>2011-07-16T10:05:04Z</time>
      </trkpt>
      <trkpt lat="44.74012" lon="5.01055">
        <ele>238</ele>
        <time>2011-07-16T10:05:38Z</time>
      </trkpt>
      <trkpt lat="44.74002" lon="5.01104">
        <ele>242</ele>
        <time>2011-07-16T10:06:10Z</time>
      </trkpt>
      <trkpt lat="44.73996" lon="5.01137">
        <ele>246</ele>
        <time>2011-07-16T10:06:30Z</time>
      </trkpt>
      <trkpt lat="44.73992" lon="5.01141">
        <ele>246</ele>
        <time>2011-07-16T10:06:34Z</time>
      </trkpt>
      <trkpt lat="44.73991" lon="5.01149">
        <ele>247</ele>
        <time>2011-07-16T10:06:39Z</time>
      </trkpt>
      <trkpt lat="44.74005" lon="5.01223">
        <ele>252</ele>
        <time>2011-07-16T10:07:10Z</time>
      </trkpt>
      <trkpt lat="44.74025" lon="5.0129">
        <ele>258</ele>
        <time>2011-07-16T10:07:47Z</time>
      </trkpt>
      <trkpt lat="44.74029" lon="5.01287">
        <ele>262</ele>
        <time>2011-07-16T10:09:01Z</time>
      </trkpt>
      <trkpt lat="44.7403" lon="5.01291">
        <ele>264</ele>
        <time>2011-07-16T10:10:29Z</time>
      </trkpt>
      <trkpt lat="44.74028" lon="5.01297">
        <ele>264</ele>
        <time>2011-07-16T10:10:35Z</time>
      </trkpt>
      <trkpt lat="44.74025" lon="5.01292">
        <ele>264</ele>
        <time>2011-07-16T10:10:51Z</time>
      </trkpt>
      <trkpt lat="44.74028" lon="5.01288">
        <ele>264</ele>
        <time>2011-07-16T10:11:12Z</time>
      </trkpt>
      <trkpt lat="44.74028" lon="5.01303">
        <ele>265</ele>
        <time>2011-07-16T10:11:54Z</time>
      </trkpt>
      <trkpt lat="44.74017" lon="5.01391">
        <ele>267</ele>
        <time>2011-07-16T10:12:26Z</time>
      </trkpt>
      <trkpt lat="44.74017" lon="5.01491">
        <ele>269</ele>
        <time>2011-07-16T10:12:50Z</time>
      </trkpt>
      <trkpt lat="44.74021" lon="5.01498">
        <ele>269</ele>
        <time>2011-07-16T10:12:52Z</time>
      </trkpt>
      <trkpt lat="44.74048" lon="5.01527">
        <ele>272</ele>
        <time>2011-07-16T10:13:01Z</time>
      </trkpt>
      <trkpt lat="44.741" lon="5.01549">
        <ele>273</ele>
        <time>2011-07-16T10:13:17Z</time>
      </trkpt>
      <trkpt lat="44.74105" lon="5.01561">
        <ele>273</ele>
        <time>2011-07-16T10:13:22Z</time>
      </trkpt>
      <trkpt lat="44.74101" lon="5.01565">
        <ele>273</ele>
        <time>2011-07-16T10:13:24Z</time>
      </trkpt>
      <trkpt lat="44.74031" lon="5.01678">
        <ele>272</ele>
        <time>2011-07-16T10:13:56Z</time>
      </trkpt>
      <trkpt lat="44.74014" lon="5.01716">
        <ele>272</ele>
        <time>2011-07-16T10:14:04Z</time>
      </trkpt>
      <trkpt lat="44.74018" lon="5.01758">
        <ele>272</ele>
        <time>2011-07-16T10:14:11Z</time>
      </trkpt>
      <trkpt lat="44.74033" lon="5.018">
        <ele>272</ele>
        <time>2011-07-16T10:14:21Z</time>
      </trkpt>
      <trkpt lat="44.74082" lon="5.01966">
        <ele>277</ele>
        <time>2011-07-16T10:15:25Z</time>
      </trkpt>
      <trkpt lat="44.74143" lon="5.02121">
        <ele>278</ele>
        <time>2011-07-16T10:15:55Z</time>
      </trkpt>
      <trkpt lat="44.74199" lon="5.02192">
        <ele>280</ele>
        <time>2011-07-16T10:16:14Z</time>
      </trkpt>
      <trkpt lat="44.74196" lon="5.02201">
        <ele>280</ele>
        <time>2011-07-16T10:16:17Z</time>
      </trkpt>
      <trkpt lat="44.74186" lon="5.02216">
        <ele>281</ele>
        <time>2011-07-16T10:16:21Z</time>
      </trkpt>
      <trkpt lat="44.74158" lon="5.02253">
        <ele>280</ele>
        <time>2011-07-16T10:16:28Z</time>
      </trkpt>
      <trkpt lat="44.74153" lon="5.02388">
        <ele>281</ele>
        <time>2011-07-16T10:16:59Z</time>
      </trkpt>
      <trkpt lat="44.74132" lon="5.02481">
        <ele>283</ele>
        <time>2011-07-16T10:17:31Z</time>
      </trkpt>
      <trkpt lat="44.7412" lon="5.02586">
        <ele>287</ele>
        <time>2011-07-16T10:18:02Z</time>
      </trkpt>
      <trkpt lat="44.74114" lon="5.02696">
        <ele>289</ele>
        <time>2011-07-16T10:18:35Z</time>
      </trkpt>
      <trkpt lat="44.74119" lon="5.02706">
        <ele>290</ele>
        <time>2011-07-16T10:18:39Z</time>
      </trkpt>
      <trkpt lat="44.74204" lon="5.02742">
        <ele>294</ele>
        <time>2011-07-16T10:19:10Z</time>
      </trkpt>
      <trkpt lat="44.74309" lon="5.02772">
        <ele>302</ele>
        <time>2011-07-16T10:19:43Z</time>
      </trkpt>
      <trkpt lat="44.74423" lon="5.02815">
        <ele>308</ele>
        <time>2011-07-16T10:20:15Z</time>
      </trkpt>
      <trkpt lat="44.74506" lon="5.02861">
        <ele>309</ele>
        <time>2011-07-16T10:20:45Z</time>
      </trkpt>
      <trkpt lat="44.74608" lon="5.02935">
        <ele>312</ele>
        <time>2011-07-16T10:21:17Z</time>
      </trkpt>
      <trkpt lat="44.7465" lon="5.02945">
        <ele>315</ele>
        <time>2011-07-16T10:21:30Z</time>
      </trkpt>
      <trkpt lat="44.74694" lon="5.0297">
        <ele>325</ele>
        <time>2011-07-16T10:21:39Z</time>
      </trkpt>
      <trkpt lat="44.74703" lon="5.0298">
        <ele>325</ele>
        <time>2011-07-16T10:21:41Z</time>
      </trkpt>
      <trkpt lat="44.74761" lon="5.03092">
        <ele>313</ele>
        <time>2011-07-16T10:21:56Z</time>
      </trkpt>
      <trkpt lat="44.74774" lon="5.03091">
        <ele>313</ele>
        <time>2011-07-16T10:21:59Z</time>
      </trkpt>
      <trkpt lat="44.74837" lon="5.03043">
        <ele>317</ele>
        <time>2011-07-16T10:22:16Z</time>
      </trkpt>
      <trkpt lat="44.75001" lon="5.03003">
        <ele>309</ele>
        <time>2011-07-16T10:22:47Z</time>
      </trkpt>
      <trkpt lat="44.75143" lon="5.03">
        <ele>311</ele>
        <time>2011-07-16T10:23:19Z</time>
      </trkpt>
      <trkpt lat="44.75155" lon="5.03007">
        <ele>310</ele>
        <time>2011-07-16T10:23:22Z</time>
      </trkpt>
      <trkpt lat="44.75246" lon="5.03006">
        <ele>312</ele>
        <time>2011-07-16T10:23:42Z</time>
      </trkpt>
      <trkpt lat="44.75244" lon="5.03001">
        <ele>312</ele>
        <time>2011-07-16T10:23:57Z</time>
      </trkpt>
      <trkpt lat="44.7525" lon="5.03011">
        <ele>312</ele>
        <time>2011-07-16T10:24:36Z</time>
      </trkpt>
      <trkpt lat="44.75289" lon="5.03022">
        <ele>305</ele>
        <time>2011-07-16T10:24:43Z</time>
      </trkpt>
      <trkpt lat="44.75504" lon="5.03047">
        <ele>303</ele>
        <time>2011-07-16T10:25:15Z</time>
      </trkpt>
      <trkpt lat="44.75747" lon="5.03066">
        <ele>293</ele>
        <time>2011-07-16T10:25:47Z</time>
      </trkpt>
      <trkpt lat="44.75832" lon="5.03099">
        <ele>291</ele>
        <time>2011-07-16T10:26:16Z</time>
      </trkpt>
      <trkpt lat="44.76021" lon="5.03138">
        <ele>284</ele>
        <time>2011-07-16T10:26:48Z</time>
      </trkpt>
      <trkpt lat="44.76207" lon="5.03181">
        <ele>279</ele>
        <time>2011-07-16T10:27:19Z</time>
      </trkpt>
      <trkpt lat="44.76291" lon="5.03232">
        <ele>280</ele>
        <time>2011-07-16T10:27:50Z</time>
      </trkpt>
      <trkpt lat="44.76403" lon="5.03318">
        <ele>280</ele>
        <time>2011-07-16T10:28:21Z</time>
      </trkpt>
      <trkpt lat="44.76442" lon="5.03343">
        <ele>280</ele>
        <time>2011-07-16T10:28:37Z</time>
      </trkpt>
      <trkpt lat="44.7659" lon="5.03392">
        <ele>284</ele>
        <time>2011-07-16T10:29:08Z</time>
      </trkpt>
      <trkpt lat="44.76644" lon="5.03395">
        <ele>285</ele>
        <time>2011-07-16T10:29:16Z</time>
      </trkpt>
      <trkpt lat="44.7668" lon="5.03372">
        <ele>285</ele>
        <time>2011-07-16T10:29:22Z</time>
      </trkpt>
      <trkpt lat="44.76709" lon="5.03354">
        <ele>278</ele>
        <time>2011-07-16T10:29:28Z</time>
      </trkpt>
      <trkpt lat="44.76765" lon="5.03313">
        <ele>277</ele>
        <time>2011-07-16T10:29:56Z</time>
      </trkpt>
      <trkpt lat="44.76771" lon="5.03316">
        <ele>277</ele>
        <time>2011-07-16T10:30:03Z</time>
      </trkpt>
      <trkpt lat="44.76775" lon="5.03318">
        <ele>279</ele>
        <time>2011-07-16T10:33:28Z</time>
      </trkpt>
      <trkpt lat="44.76785" lon="5.03301">
        <ele>279</ele>
        <time>2011-07-16T10:33:34Z</time>
      </trkpt>
      <trkpt lat="44.76838" lon="5.03299">
        <ele>282</ele>
        <time>2011-07-16T10:33:48Z</time>
      </trkpt>
      <trkpt lat="44.76897" lon="5.03325">
        <ele>283</ele>
        <time>2011-07-16T10:34:12Z</time>
      </trkpt>
      <trkpt lat="44.769" lon="5.0332">
        <ele>283</ele>
        <time>2011-07-16T10:34:14Z</time>
      </trkpt>
      <trkpt lat="44.76897" lon="5.0331">
        <ele>283</ele>
        <time>2011-07-16T10:34:17Z</time>
      </trkpt>
      <trkpt lat="44.76898" lon="5.03301">
        <ele>283</ele>
        <time>2011-07-16T10:34:19Z</time>
      </trkpt>
      <trkpt lat="44.76904" lon="5.03286">
        <ele>283</ele>
        <time>2011-07-16T10:34:23Z</time>
      </trkpt>
      <trkpt lat="44.7691" lon="5.03289">
        <ele>282</ele>
        <time>2011-07-16T10:34:46Z</time>
      </trkpt>
      <trkpt lat="44.76908" lon="5.03283">
        <ele>282</ele>
        <time>2011-07-16T10:34:49Z</time>
      </trkpt>
    </trkseg>
  </trk>
</gpx>